SIA324 WSSS-EHAM
Flight info
| Callsign | SIA324 |
|---|---|
| Flight time | N/A |
| Altitude | 34000 |
| Route | VMR6E VMR B469 VPK M751 VKB A334 HTY W14 PUT L759 TATUX/N0503F360 L759 BBS/N0489F260 W49 KKJ/N0504F360 L760 DPN G333 MERUN L750 BINDO G201 ZB L750 BIROS/N0498F380 L750 RANAH B449 MAMED P130 BODKA M747 SULEL N449 TELLI DCT INDUR UN161 ERZ UL746 SONAD/N0493F400 UL746 ODERO DCT OPT DCT IRLOX DCT EMPOS DCT FOGRE DCT PEPIK DCT ELMEK DCT NAVEK DCT VEXIL DCT KATCE DCT APEBE DCT NORKU |
| Aircraft | A359/H-SDE1E2E3GHIJ1J2J3J5M1P2RWXYZ/LB1D1 |
Departure
| Time | 2026-05-05 12:17 |
|---|---|
| Airport | Singapore Changi Airport (WSSS) |
Arrival
| Time | N/A |
|---|---|
| Airport | Amsterdam Airport Schiphol (EHAM) |
| Time | Latitude | Longitude | Altitude | Speed | Heading |
|---|---|---|---|---|---|
| 2026-05-05 12:17 | 1.40470 | 104.00008 | 2108 ft | 182 kts | 23° |
| 2026-05-05 12:17 | 1.41666 | 104.00544 | 2281 ft | 195 kts | 24° |
| 2026-05-05 12:17 | 1.42942 | 104.01112 | 2465 ft | 207 kts | 24° |
| 2026-05-05 12:17 | 1.44308 | 104.01709 | 2628 ft | 221 kts | 24° |
| 2026-05-05 12:18 | 1.45777 | 104.02345 | 2784 ft | 238 kts | 24° |
| 2026-05-05 12:18 | 1.47346 | 104.03017 | 3014 ft | 252 kts | 23° |
| 2026-05-05 12:18 | 1.49036 | 104.03606 | 3273 ft | 263 kts | 11° |
| 2026-05-05 12:18 | 1.50253 | 104.03656 | 3490 ft | 267 kts | 352° |
| 2026-05-05 12:19 | 1.52024 | 104.03069 | 3949 ft | 271 kts | 334° |
| 2026-05-05 12:19 | 1.54288 | 104.01933 | 4613 ft | 273 kts | 333° |
| 2026-05-05 12:19 | 1.55987 | 104.01070 | 5089 ft | 275 kts | 333° |
| 2026-05-05 12:19 | 1.57122 | 104.00495 | 5397 ft | 277 kts | 333° |
| 2026-05-05 12:20 | 1.59429 | 103.99326 | 6043 ft | 279 kts | 333° |
| 2026-05-05 12:20 | 1.60582 | 103.98743 | 6347 ft | 282 kts | 333° |
| 2026-05-05 12:20 | 1.62339 | 103.97858 | 6825 ft | 283 kts | 333° |
| 2026-05-05 12:20 | 1.64107 | 103.96971 | 7292 ft | 285 kts | 333° |
| 2026-05-05 12:21 | 1.65885 | 103.96077 | 7743 ft | 287 kts | 333° |
| 2026-05-05 12:21 | 1.67680 | 103.95176 | 8191 ft | 290 kts | 333° |
| 2026-05-05 12:21 | 1.69488 | 103.94269 | 8633 ft | 292 kts | 333° |
| 2026-05-05 12:21 | 1.71314 | 103.93354 | 9061 ft | 294 kts | 333° |
| 2026-05-05 12:22 | 1.73151 | 103.92433 | 9483 ft | 296 kts | 333° |
| 2026-05-05 12:22 | 1.75016 | 103.91543 | 9913 ft | 298 kts | 339° |
| 2026-05-05 12:22 | 1.77017 | 103.91079 | 10232 ft | 304 kts | 354° |
| 2026-05-05 12:22 | 1.79087 | 103.90921 | 10440 ft | 314 kts | 357° |
| 2026-05-05 12:23 | 1.81309 | 103.90798 | 10625 ft | 325 kts | 357° |
| 2026-05-05 12:23 | 1.83601 | 103.90667 | 10829 ft | 336 kts | 357° |
| 2026-05-05 12:23 | 1.85968 | 103.90526 | 11026 ft | 346 kts | 356° |
| 2026-05-05 12:23 | 1.88403 | 103.90377 | 11220 ft | 356 kts | 356° |
| 2026-05-05 12:24 | 1.90907 | 103.90219 | 11402 ft | 365 kts | 356° |
| 2026-05-05 12:24 | 1.93470 | 103.90058 | 11584 ft | 374 kts | 356° |
| 2026-05-05 12:24 | 1.96092 | 103.89891 | 11756 ft | 382 kts | 356° |
| 2026-05-05 12:24 | 1.98773 | 103.89720 | 11923 ft | 390 kts | 356° |
| 2026-05-05 12:25 | 2.01505 | 103.89546 | 12132 ft | 396 kts | 356° |
| 2026-05-05 12:25 | 2.04261 | 103.89370 | 12454 ft | 398 kts | 356° |
| 2026-05-05 12:25 | 2.07033 | 103.89194 | 12766 ft | 400 kts | 356° |
| 2026-05-05 12:25 | 2.09823 | 103.89016 | 13099 ft | 402 kts | 356° |
| 2026-05-05 12:26 | 2.12622 | 103.88839 | 13404 ft | 404 kts | 356° |
| 2026-05-05 12:26 | 2.15435 | 103.88660 | 13709 ft | 406 kts | 356° |
| 2026-05-05 12:26 | 2.18266 | 103.88479 | 14023 ft | 409 kts | 356° |
| 2026-05-05 12:26 | 2.21107 | 103.88298 | 14337 ft | 410 kts | 356° |
| 2026-05-05 12:27 | 2.23959 | 103.88117 | 14651 ft | 412 kts | 357° |
| 2026-05-05 12:27 | 2.26785 | 103.87937 | 14928 ft | 414 kts | 357° |
| 2026-05-05 12:27 | 2.29666 | 103.87754 | 15215 ft | 415 kts | 356° |
| 2026-05-05 12:27 | 2.32552 | 103.87570 | 15482 ft | 416 kts | 356° |
| 2026-05-05 12:28 | 2.35454 | 103.87382 | 15710 ft | 419 kts | 357° |
| 2026-05-05 12:28 | 2.38356 | 103.87052 | 15958 ft | 424 kts | 348° |
| 2026-05-05 12:28 | 2.41167 | 103.86185 | 16329 ft | 421 kts | 340° |
| 2026-05-05 12:28 | 2.43889 | 103.85081 | 16540 ft | 425 kts | 336° |
| 2026-05-05 12:29 | 2.46578 | 103.83842 | 16737 ft | 427 kts | 335° |
| 2026-05-05 12:29 | 2.49266 | 103.82552 | 16992 ft | 429 kts | 335° |
| 2026-05-05 12:29 | 2.51961 | 103.81255 | 17260 ft | 430 kts | 335° |
| 2026-05-05 12:29 | 2.54663 | 103.79969 | 17481 ft | 431 kts | 335° |
| 2026-05-05 12:30 | 2.57393 | 103.78688 | 17707 ft | 434 kts | 335° |
| 2026-05-05 12:30 | 2.60128 | 103.77419 | 17992 ft | 435 kts | 336° |
| 2026-05-05 12:30 | 2.62889 | 103.76154 | 18237 ft | 437 kts | 336° |
| 2026-05-05 12:30 | 2.65660 | 103.74890 | 18475 ft | 438 kts | 336° |
| 2026-05-05 12:31 | 2.68442 | 103.73623 | 18698 ft | 440 kts | 336° |
| 2026-05-05 12:31 | 2.71231 | 103.72351 | 18925 ft | 442 kts | 336° |
| 2026-05-05 12:31 | 2.74030 | 103.71077 | 19142 ft | 443 kts | 336° |
| 2026-05-05 12:31 | 2.76852 | 103.69810 | 19351 ft | 445 kts | 336° |
| 2026-05-05 12:32 | 2.79685 | 103.68544 | 19562 ft | 447 kts | 336° |
| 2026-05-05 12:32 | 2.82524 | 103.67277 | 19749 ft | 448 kts | 336° |
| 2026-05-05 12:32 | 2.85379 | 103.66002 | 19954 ft | 450 kts | 336° |
| 2026-05-05 12:32 | 2.88240 | 103.64723 | 20142 ft | 451 kts | 336° |
| 2026-05-05 12:33 | 2.91068 | 103.63458 | 20339 ft | 453 kts | 336° |
| 2026-05-05 12:33 | 2.93953 | 103.62171 | 20539 ft | 454 kts | 336° |
| 2026-05-05 12:33 | 2.96842 | 103.60885 | 20742 ft | 456 kts | 336° |
| 2026-05-05 12:33 | 2.99746 | 103.59595 | 20946 ft | 457 kts | 336° |
| 2026-05-05 12:34 | 3.02655 | 103.58302 | 21136 ft | 459 kts | 336° |
| 2026-05-05 12:34 | 3.05577 | 103.57003 | 21331 ft | 460 kts | 336° |
| 2026-05-05 12:34 | 3.08507 | 103.55700 | 21525 ft | 462 kts | 336° |
| 2026-05-05 12:34 | 3.11445 | 103.54393 | 21704 ft | 463 kts | 336° |
| 2026-05-05 12:35 | 3.14393 | 103.53081 | 21899 ft | 465 kts | 336° |
| 2026-05-05 12:35 | 3.17350 | 103.51767 | 22093 ft | 466 kts | 336° |
| 2026-05-05 12:35 | 3.20320 | 103.50438 | 22285 ft | 467 kts | 336° |
| 2026-05-05 12:35 | 3.23288 | 103.49100 | 22457 ft | 469 kts | 336° |
| 2026-05-05 12:36 | 3.26263 | 103.47757 | 22629 ft | 470 kts | 336° |
| 2026-05-05 12:36 | 3.29250 | 103.46409 | 22814 ft | 472 kts | 336° |
| 2026-05-05 12:36 | 3.32252 | 103.45055 | 23003 ft | 474 kts | 336° |
| 2026-05-05 12:36 | 3.35249 | 103.43706 | 23193 ft | 475 kts | 336° |
| 2026-05-05 12:37 | 3.38276 | 103.42343 | 23381 ft | 476 kts | 336° |
| 2026-05-05 12:37 | 3.41314 | 103.41007 | 23556 ft | 478 kts | 338° |
| 2026-05-05 12:37 | 3.44396 | 103.39755 | 23740 ft | 479 kts | 339° |
| 2026-05-05 12:37 | 3.47510 | 103.38542 | 23914 ft | 480 kts | 340° |
| 2026-05-05 12:38 | 3.50631 | 103.37338 | 24095 ft | 482 kts | 340° |
| 2026-05-05 12:38 | 3.53762 | 103.36126 | 24276 ft | 484 kts | 339° |
| 2026-05-05 12:38 | 3.56903 | 103.34901 | 24485 ft | 485 kts | 339° |
| 2026-05-05 12:38 | 3.60048 | 103.33664 | 24684 ft | 486 kts | 339° |
| 2026-05-05 12:39 | 3.63192 | 103.32420 | 24885 ft | 487 kts | 339° |
| 2026-05-05 12:39 | 3.66347 | 103.31169 | 25080 ft | 489 kts | 339° |
| 2026-05-05 12:39 | 3.69516 | 103.29910 | 25300 ft | 490 kts | 339° |
| 2026-05-05 12:39 | 3.72693 | 103.28646 | 25525 ft | 491 kts | 339° |
| 2026-05-05 12:40 | 3.75871 | 103.27381 | 25743 ft | 493 kts | 339° |
| 2026-05-05 12:40 | 3.79063 | 103.26110 | 25953 ft | 495 kts | 339° |
| 2026-05-05 12:40 | 3.82271 | 103.24833 | 26164 ft | 496 kts | 339° |
| 2026-05-05 12:40 | 3.85481 | 103.23556 | 26397 ft | 497 kts | 339° |
| 2026-05-05 12:41 | 3.88696 | 103.22278 | 26620 ft | 499 kts | 339° |
| 2026-05-05 12:41 | 3.91933 | 103.20992 | 26842 ft | 501 kts | 339° |
| 2026-05-05 12:41 | 3.95177 | 103.19701 | 27073 ft | 502 kts | 339° |
| 2026-05-05 12:41 | 3.98420 | 103.18411 | 27305 ft | 503 kts | 339° |
| 2026-05-05 12:42 | 4.01688 | 103.17112 | 27530 ft | 505 kts | 339° |
| 2026-05-05 12:42 | 4.04956 | 103.15812 | 27757 ft | 507 kts | 339° |
| 2026-05-05 12:42 | 4.08237 | 103.14507 | 27974 ft | 508 kts | 339° |
| 2026-05-05 12:42 | 4.11490 | 103.13212 | 28184 ft | 510 kts | 339° |
| 2026-05-05 12:43 | 4.14789 | 103.11901 | 28401 ft | 511 kts | 339° |
| 2026-05-05 12:43 | 4.18101 | 103.10585 | 28602 ft | 513 kts | 339° |
| 2026-05-05 12:43 | 4.21418 | 103.09265 | 28799 ft | 514 kts | 339° |
| 2026-05-05 12:43 | 4.24747 | 103.07940 | 29001 ft | 515 kts | 339° |
| 2026-05-05 12:44 | 4.28081 | 103.06612 | 29179 ft | 517 kts | 339° |
| 2026-05-05 12:44 | 4.31426 | 103.05280 | 29387 ft | 517 kts | 339° |
| 2026-05-05 12:44 | 4.34765 | 103.03951 | 29663 ft | 516 kts | 339° |
| 2026-05-05 12:44 | 4.38098 | 103.02623 | 29945 ft | 515 kts | 338° |
| 2026-05-05 12:45 | 4.41429 | 103.01297 | 30212 ft | 514 kts | 338° |
| 2026-05-05 12:45 | 4.44751 | 102.99974 | 30452 ft | 514 kts | 338° |
| 2026-05-05 12:45 | 4.48069 | 102.98653 | 30675 ft | 513 kts | 338° |
| 2026-05-05 12:45 | 4.51389 | 102.97330 | 30898 ft | 513 kts | 338° |
| 2026-05-05 12:46 | 4.54700 | 102.96011 | 31123 ft | 512 kts | 338° |
| 2026-05-05 12:46 | 4.58010 | 102.94693 | 31342 ft | 512 kts | 338° |
| 2026-05-05 12:46 | 4.61319 | 102.93374 | 31559 ft | 511 kts | 338° |
| 2026-05-05 12:46 | 4.64622 | 102.92059 | 31767 ft | 511 kts | 338° |
| 2026-05-05 12:47 | 4.67927 | 102.90742 | 31965 ft | 510 kts | 338° |
| 2026-05-05 12:47 | 4.71224 | 102.89428 | 32171 ft | 510 kts | 338° |
| 2026-05-05 12:47 | 4.74521 | 102.88114 | 32370 ft | 509 kts | 338° |
| 2026-05-05 12:47 | 4.77813 | 102.86800 | 32556 ft | 509 kts | 338° |
| 2026-05-05 12:48 | 4.81096 | 102.85491 | 32745 ft | 508 kts | 338° |
| 2026-05-05 12:48 | 4.84386 | 102.84180 | 32922 ft | 508 kts | 338° |
| 2026-05-05 12:48 | 4.87666 | 102.82873 | 33079 ft | 508 kts | 338° |
| 2026-05-05 12:48 | 4.90950 | 102.81571 | 33222 ft | 507 kts | 338° |
| 2026-05-05 12:49 | 4.94227 | 102.80269 | 33361 ft | 507 kts | 338° |
| 2026-05-05 12:49 | 4.97516 | 102.78961 | 33503 ft | 507 kts | 338° |
| 2026-05-05 12:49 | 5.00792 | 102.77658 | 33657 ft | 507 kts | 338° |
| 2026-05-05 12:49 | 5.04071 | 102.76353 | 33797 ft | 507 kts | 338° |
| 2026-05-05 12:50 | 5.10661 | 102.73732 | 33824 ft | 512 kts | 338° |
| 2026-05-05 12:50 | 5.17286 | 102.71097 | 33823 ft | 513 kts | 338° |
| 2026-05-05 12:51 | 5.23872 | 102.68477 | 33822 ft | 512 kts | 338° |
| 2026-05-05 12:51 | 5.30532 | 102.65787 | 33822 ft | 512 kts | 338° |
| 2026-05-05 12:52 | 5.37141 | 102.63111 | 33822 ft | 512 kts | 338° |
| 2026-05-05 12:52 | 5.43767 | 102.60458 | 33828 ft | 512 kts | 338° |
| 2026-05-05 12:53 | 5.50340 | 102.57834 | 33833 ft | 512 kts | 338° |
| 2026-05-05 12:53 | 5.56961 | 102.55197 | 33833 ft | 512 kts | 338° |
| 2026-05-05 12:54 | 5.66894 | 102.51225 | 33830 ft | 512 kts | 338° |
| 2026-05-05 12:55 | 5.73506 | 102.48577 | 33829 ft | 512 kts | 338° |
| 2026-05-05 12:55 | 5.80128 | 102.45927 | 33834 ft | 512 kts | 338° |
| 2026-05-05 12:56 | 5.86745 | 102.43279 | 33824 ft | 512 kts | 338° |
| 2026-05-05 12:56 | 5.93361 | 102.40631 | 33831 ft | 512 kts | 338° |
| 2026-05-05 12:57 | 5.99975 | 102.37982 | 33829 ft | 512 kts | 338° |
| 2026-05-05 12:57 | 6.06585 | 102.35335 | 33831 ft | 511 kts | 338° |
| 2026-05-05 12:58 | 6.12828 | 102.31974 | 33830 ft | 511 kts | 322° |
| 2026-05-05 12:58 | 6.17705 | 102.26833 | 33834 ft | 510 kts | 303° |
| 2026-05-05 12:59 | 6.20818 | 102.20445 | 33829 ft | 510 kts | 292° |
| 2026-05-05 12:59 | 6.23436 | 102.13801 | 33823 ft | 511 kts | 291° |
| 2026-05-05 13:00 | 6.27290 | 102.03863 | 33822 ft | 511 kts | 291° |
| 2026-05-05 13:01 | 6.32640 | 101.90569 | 33814 ft | 511 kts | 292° |
| 2026-05-05 13:01 | 6.35289 | 101.83988 | 33804 ft | 511 kts | 292° |
| 2026-05-05 13:02 | 6.37953 | 101.77367 | 33804 ft | 511 kts | 292° |
| 2026-05-05 13:02 | 6.40618 | 101.70738 | 33804 ft | 511 kts | 292° |
| 2026-05-05 13:03 | 6.43282 | 101.64107 | 33804 ft | 511 kts | 292° |
| 2026-05-05 13:03 | 6.45945 | 101.57477 | 33804 ft | 511 kts | 292° |
| 2026-05-05 13:04 | 6.48604 | 101.50855 | 33804 ft | 511 kts | 292° |
| 2026-05-05 13:04 | 6.51266 | 101.44221 | 33804 ft | 511 kts | 292° |
| 2026-05-05 13:05 | 6.53922 | 101.37600 | 33804 ft | 511 kts | 292° |
| 2026-05-05 13:05 | 6.56583 | 101.30970 | 33804 ft | 511 kts | 292° |
| 2026-05-05 13:06 | 6.59239 | 101.24340 | 33804 ft | 511 kts | 292° |
| 2026-05-05 13:06 | 6.61899 | 101.17703 | 33804 ft | 511 kts | 292° |
| 2026-05-05 13:07 | 6.64105 | 101.12191 | 33813 ft | 511 kts | 292° |
| 2026-05-05 13:07 | 6.66759 | 101.05556 | 33813 ft | 511 kts | 292° |
| 2026-05-05 13:08 | 6.69861 | 100.97798 | 33813 ft | 511 kts | 292° |
| 2026-05-05 13:08 | 6.72067 | 100.92281 | 33813 ft | 511 kts | 292° |
| 2026-05-05 13:09 | 6.74720 | 100.85644 | 33813 ft | 511 kts | 292° |
| 2026-05-05 13:09 | 6.77372 | 100.79008 | 33823 ft | 511 kts | 292° |
| 2026-05-05 13:10 | 6.80029 | 100.72370 | 33823 ft | 511 kts | 292° |
| 2026-05-05 13:10 | 6.82676 | 100.65727 | 33823 ft | 512 kts | 292° |
| 2026-05-05 13:11 | 6.85325 | 100.59080 | 33823 ft | 511 kts | 292° |
| 2026-05-05 13:11 | 6.87975 | 100.52441 | 33834 ft | 511 kts | 292° |
| 2026-05-05 13:12 | 6.90625 | 100.45801 | 33832 ft | 511 kts | 292° |
| 2026-05-05 13:12 | 6.93465 | 100.39266 | 33837 ft | 511 kts | 300° |
| 2026-05-05 13:13 | 6.97472 | 100.33365 | 33830 ft | 510 kts | 307° |
| 2026-05-05 13:13 | 7.01758 | 100.27669 | 33829 ft | 511 kts | 308° |
| 2026-05-05 13:14 | 7.06088 | 100.22000 | 33832 ft | 511 kts | 308° |
| 2026-05-05 13:14 | 7.10401 | 100.16321 | 33833 ft | 510 kts | 308° |
| 2026-05-05 13:15 | 7.14695 | 100.10638 | 33833 ft | 510 kts | 307° |
| 2026-05-05 13:15 | 7.18960 | 100.04988 | 33830 ft | 510 kts | 307° |
| 2026-05-05 13:16 | 7.23249 | 99.99303 | 33833 ft | 510 kts | 307° |
| 2026-05-05 13:16 | 7.27537 | 99.93618 | 33833 ft | 509 kts | 308° |
| 2026-05-05 13:17 | 7.31825 | 99.87940 | 33829 ft | 509 kts | 308° |
| 2026-05-05 13:17 | 7.36104 | 99.82258 | 33830 ft | 509 kts | 308° |
| 2026-05-05 13:18 | 7.40383 | 99.76575 | 33832 ft | 509 kts | 308° |
| 2026-05-05 13:18 | 7.44660 | 99.70894 | 33833 ft | 509 kts | 308° |
| 2026-05-05 13:19 | 7.48938 | 99.65209 | 33834 ft | 509 kts | 307° |
| 2026-05-05 13:19 | 7.52511 | 99.59065 | 33833 ft | 509 kts | 297° |
| 2026-05-05 13:20 | 7.55556 | 99.52621 | 33831 ft | 510 kts | 295° |
| 2026-05-05 13:20 | 7.58518 | 99.46129 | 33834 ft | 510 kts | 295° |
| 2026-05-05 13:21 | 7.61484 | 99.39631 | 33834 ft | 510 kts | 295° |
| 2026-05-05 13:21 | 7.64458 | 99.33147 | 33833 ft | 510 kts | 295° |
| 2026-05-05 13:22 | 7.67441 | 99.26661 | 33831 ft | 510 kts | 295° |
| 2026-05-05 13:22 | 7.70426 | 99.20172 | 33841 ft | 510 kts | 295° |
| 2026-05-05 13:23 | 7.73409 | 99.13681 | 33842 ft | 510 kts | 295° |
| 2026-05-05 13:23 | 7.76387 | 99.07192 | 33850 ft | 510 kts | 295° |
| 2026-05-05 13:24 | 7.79372 | 99.00695 | 33851 ft | 510 kts | 295° |
| 2026-05-05 13:24 | 7.82351 | 98.94201 | 33850 ft | 510 kts | 295° |
| 2026-05-05 13:25 | 7.85327 | 98.87707 | 33851 ft | 510 kts | 295° |
| 2026-05-05 13:25 | 7.88308 | 98.81207 | 33851 ft | 510 kts | 295° |
| 2026-05-05 13:26 | 7.91286 | 98.74709 | 33850 ft | 511 kts | 295° |
| 2026-05-05 13:26 | 7.94268 | 98.68200 | 33843 ft | 511 kts | 295° |
| 2026-05-05 13:27 | 7.97242 | 98.61693 | 33841 ft | 511 kts | 295° |
| 2026-05-05 13:27 | 8.00219 | 98.55184 | 33841 ft | 511 kts | 295° |
| 2026-05-05 13:28 | 8.03193 | 98.48681 | 33834 ft | 511 kts | 295° |
| 2026-05-05 13:28 | 8.06148 | 98.42211 | 33834 ft | 511 kts | 295° |
| 2026-05-05 13:29 | 8.09123 | 98.35702 | 33830 ft | 511 kts | 295° |
| 2026-05-05 13:29 | 8.12876 | 98.29659 | 33833 ft | 509 kts | 312° |
| 2026-05-05 13:30 | 8.17882 | 98.24631 | 33831 ft | 508 kts | 318° |
| 2026-05-05 13:30 | 8.23111 | 98.19820 | 33828 ft | 508 kts | 319° |
| 2026-05-05 13:31 | 8.28359 | 98.15038 | 33833 ft | 508 kts | 319° |
| 2026-05-05 13:31 | 8.33592 | 98.10235 | 33831 ft | 508 kts | 318° |
| 2026-05-05 13:32 | 8.38818 | 98.05417 | 33835 ft | 508 kts | 318° |
| 2026-05-05 13:32 | 8.44033 | 98.00598 | 33833 ft | 508 kts | 318° |
| 2026-05-05 13:33 | 8.49245 | 97.95781 | 33830 ft | 508 kts | 318° |
| 2026-05-05 13:33 | 8.54466 | 97.90958 | 33829 ft | 508 kts | 318° |
| 2026-05-05 13:34 | 8.59678 | 97.86126 | 33833 ft | 508 kts | 318° |
| 2026-05-05 13:34 | 8.64885 | 97.81298 | 33822 ft | 508 kts | 318° |
| 2026-05-05 13:35 | 8.70090 | 97.76477 | 33824 ft | 508 kts | 318° |
| 2026-05-05 13:35 | 8.75321 | 97.71642 | 33815 ft | 510 kts | 318° |
| 2026-05-05 13:36 | 8.80539 | 97.66804 | 33813 ft | 508 kts | 318° |
| 2026-05-05 13:36 | 8.85733 | 97.61973 | 33813 ft | 508 kts | 318° |
| 2026-05-05 13:37 | 8.90935 | 97.57138 | 33813 ft | 507 kts | 317° |
| 2026-05-05 13:37 | 8.96120 | 97.52293 | 33813 ft | 507 kts | 317° |
| 2026-05-05 13:38 | 9.01309 | 97.47447 | 33813 ft | 507 kts | 317° |
| 2026-05-05 13:38 | 9.06493 | 97.42607 | 33813 ft | 507 kts | 317° |
| 2026-05-05 13:39 | 9.11680 | 97.37766 | 33804 ft | 507 kts | 317° |
| 2026-05-05 13:39 | 9.16867 | 97.32925 | 33804 ft | 507 kts | 317° |
| 2026-05-05 13:40 | 9.22056 | 97.28079 | 33804 ft | 507 kts | 317° |
| 2026-05-05 13:40 | 9.27238 | 97.23236 | 33803 ft | 507 kts | 317° |
| 2026-05-05 13:41 | 9.32416 | 97.18392 | 33804 ft | 507 kts | 317° |
| 2026-05-05 13:41 | 9.37596 | 97.13547 | 33804 ft | 507 kts | 317° |
| 2026-05-05 13:42 | 9.42742 | 97.08732 | 33804 ft | 507 kts | 317° |
| 2026-05-05 13:42 | 9.47928 | 97.03880 | 33804 ft | 507 kts | 317° |
| 2026-05-05 13:43 | 9.53106 | 96.99032 | 33804 ft | 507 kts | 317° |
| 2026-05-05 13:43 | 9.58285 | 96.94180 | 33804 ft | 507 kts | 317° |
| 2026-05-05 13:44 | 9.63458 | 96.89330 | 33804 ft | 507 kts | 317° |
| 2026-05-05 13:44 | 9.68632 | 96.84479 | 33804 ft | 507 kts | 317° |
| 2026-05-05 13:45 | 9.73806 | 96.79626 | 33804 ft | 507 kts | 317° |
| 2026-05-05 13:45 | 9.78977 | 96.74773 | 33804 ft | 506 kts | 317° |
| 2026-05-05 13:46 | 9.84144 | 96.69922 | 33814 ft | 506 kts | 317° |
| 2026-05-05 13:46 | 9.89308 | 96.65070 | 33813 ft | 506 kts | 317° |
| 2026-05-05 13:47 | 9.94477 | 96.60211 | 33813 ft | 506 kts | 317° |
| 2026-05-05 13:47 | 9.99602 | 96.55324 | 33810 ft | 506 kts | 314° |
| 2026-05-05 13:48 | 10.04346 | 96.50037 | 33814 ft | 506 kts | 311° |
| 2026-05-05 13:48 | 10.08994 | 96.44686 | 33813 ft | 506 kts | 311° |
| 2026-05-05 13:49 | 10.13635 | 96.39308 | 33813 ft | 506 kts | 311° |
| 2026-05-05 13:49 | 10.18278 | 96.33938 | 33813 ft | 506 kts | 311° |
| 2026-05-05 13:50 | 10.22924 | 96.28573 | 33813 ft | 506 kts | 311° |
| 2026-05-05 13:50 | 10.27567 | 96.23207 | 33813 ft | 506 kts | 311° |
| 2026-05-05 13:51 | 10.32212 | 96.17838 | 33815 ft | 506 kts | 311° |
| 2026-05-05 13:51 | 10.36855 | 96.12472 | 33822 ft | 506 kts | 311° |
| 2026-05-05 13:52 | 10.41497 | 96.07102 | 33822 ft | 506 kts | 311° |
| 2026-05-05 13:52 | 10.45357 | 96.02637 | 33822 ft | 506 kts | 311° |
| 2026-05-05 13:53 | 10.50755 | 95.96387 | 33823 ft | 506 kts | 311° |
| 2026-05-05 13:53 | 10.54639 | 95.91887 | 33824 ft | 506 kts | 311° |
| 2026-05-05 13:54 | 10.59275 | 95.86513 | 33823 ft | 506 kts | 311° |
| 2026-05-05 13:54 | 10.63911 | 95.81135 | 33830 ft | 505 kts | 311° |
| 2026-05-05 13:55 | 10.68542 | 95.75763 | 33833 ft | 505 kts | 311° |
| 2026-05-05 13:55 | 10.73171 | 95.70389 | 33833 ft | 505 kts | 311° |
| 2026-05-05 13:56 | 10.77803 | 95.65010 | 33829 ft | 505 kts | 311° |
| 2026-05-05 13:56 | 10.82426 | 95.59639 | 33841 ft | 505 kts | 311° |
| 2026-05-05 13:57 | 10.87053 | 95.54260 | 33842 ft | 505 kts | 311° |
| 2026-05-05 13:57 | 10.91680 | 95.48879 | 33841 ft | 505 kts | 311° |
| 2026-05-05 13:58 | 10.96293 | 95.43513 | 33841 ft | 504 kts | 311° |
| 2026-05-05 13:58 | 11.00917 | 95.38128 | 33841 ft | 504 kts | 311° |
| 2026-05-05 13:59 | 11.07838 | 95.30063 | 33841 ft | 504 kts | 311° |
| 2026-05-05 14:00 | 11.14720 | 95.22037 | 33851 ft | 504 kts | 311° |
| 2026-05-05 14:00 | 11.19329 | 95.16658 | 33851 ft | 504 kts | 311° |
| 2026-05-05 14:01 | 11.23937 | 95.11277 | 33850 ft | 503 kts | 311° |
| 2026-05-05 14:01 | 11.28538 | 95.05903 | 33851 ft | 504 kts | 311° |
| 2026-05-05 14:02 | 11.33143 | 95.00520 | 33851 ft | 504 kts | 311° |
| 2026-05-05 14:02 | 11.37744 | 94.95141 | 33860 ft | 503 kts | 311° |
| 2026-05-05 14:03 | 11.42342 | 94.89765 | 33860 ft | 503 kts | 311° |
| 2026-05-05 14:03 | 11.46935 | 94.84390 | 33860 ft | 503 kts | 311° |
| 2026-05-05 14:04 | 11.51525 | 94.79012 | 33860 ft | 503 kts | 311° |
| 2026-05-05 14:04 | 11.56115 | 94.73633 | 33860 ft | 502 kts | 311° |
| 2026-05-05 14:05 | 11.60699 | 94.68261 | 33860 ft | 502 kts | 311° |
| 2026-05-05 14:05 | 11.65283 | 94.62884 | 33867 ft | 502 kts | 311° |
| 2026-05-05 14:06 | 11.69829 | 94.57548 | 33869 ft | 502 kts | 311° |
| 2026-05-05 14:06 | 11.74403 | 94.52176 | 33869 ft | 501 kts | 311° |
| 2026-05-05 14:07 | 11.78976 | 94.46801 | 33869 ft | 501 kts | 311° |
| 2026-05-05 14:07 | 11.83545 | 94.41429 | 33869 ft | 501 kts | 310° |
| 2026-05-05 14:08 | 11.88388 | 94.36321 | 33869 ft | 500 kts | 316° |
| 2026-05-05 14:08 | 11.93475 | 94.31463 | 33869 ft | 500 kts | 316° |
| 2026-05-05 14:09 | 11.98534 | 94.26581 | 33869 ft | 500 kts | 316° |
| 2026-05-05 14:09 | 12.03544 | 94.21644 | 33869 ft | 500 kts | 315° |
| 2026-05-05 14:10 | 12.08531 | 94.16688 | 33869 ft | 500 kts | 315° |
| 2026-05-05 14:10 | 12.13508 | 94.11735 | 33877 ft | 500 kts | 315° |
| 2026-05-05 14:11 | 12.18492 | 94.06778 | 33878 ft | 500 kts | 315° |
| 2026-05-05 14:11 | 12.23482 | 94.01823 | 33878 ft | 500 kts | 316° |
| 2026-05-05 14:12 | 12.28488 | 93.96894 | 33878 ft | 500 kts | 316° |
| 2026-05-05 14:12 | 12.33504 | 93.91966 | 33878 ft | 500 kts | 316° |
| 2026-05-05 14:13 | 12.38514 | 93.87042 | 33878 ft | 500 kts | 316° |
| 2026-05-05 14:13 | 12.43519 | 93.82112 | 33878 ft | 500 kts | 316° |
| 2026-05-05 14:14 | 12.48525 | 93.77175 | 33878 ft | 500 kts | 316° |
| 2026-05-05 14:14 | 12.53498 | 93.72271 | 33878 ft | 500 kts | 316° |
| 2026-05-05 14:15 | 12.58536 | 93.67300 | 33878 ft | 500 kts | 316° |
| 2026-05-05 14:15 | 12.63510 | 93.62390 | 33878 ft | 500 kts | 316° |
| 2026-05-05 14:16 | 12.68553 | 93.57407 | 33878 ft | 500 kts | 316° |
| 2026-05-05 14:16 | 12.73520 | 93.52495 | 33878 ft | 500 kts | 316° |
| 2026-05-05 14:17 | 12.78556 | 93.47517 | 33878 ft | 500 kts | 316° |
| 2026-05-05 14:17 | 12.83525 | 93.42602 | 33878 ft | 500 kts | 316° |
| 2026-05-05 14:18 | 12.88526 | 93.37648 | 33878 ft | 500 kts | 316° |
| 2026-05-05 14:18 | 12.93524 | 93.32694 | 33878 ft | 500 kts | 315° |
| 2026-05-05 14:19 | 12.98522 | 93.27738 | 33878 ft | 500 kts | 316° |
| 2026-05-05 14:19 | 13.03521 | 93.22780 | 33878 ft | 500 kts | 316° |
| 2026-05-05 14:20 | 13.08526 | 93.17814 | 33878 ft | 501 kts | 316° |
| 2026-05-05 14:20 | 13.13525 | 93.12850 | 33878 ft | 500 kts | 315° |
| 2026-05-05 14:21 | 13.18527 | 93.07879 | 33878 ft | 500 kts | 315° |
| 2026-05-05 14:21 | 13.23524 | 93.02910 | 33879 ft | 500 kts | 315° |
| 2026-05-05 14:22 | 13.28523 | 92.97934 | 33878 ft | 500 kts | 315° |
| 2026-05-05 14:22 | 13.33519 | 92.92963 | 33878 ft | 500 kts | 315° |
| 2026-05-05 14:23 | 13.38516 | 92.87986 | 33878 ft | 500 kts | 315° |
| 2026-05-05 14:23 | 13.43513 | 92.83006 | 33878 ft | 500 kts | 315° |
| 2026-05-05 14:24 | 13.48507 | 92.78026 | 33878 ft | 501 kts | 315° |
| 2026-05-05 14:24 | 13.53504 | 92.73038 | 33878 ft | 501 kts | 315° |
| 2026-05-05 14:25 | 13.58503 | 92.68048 | 33878 ft | 501 kts | 315° |
| 2026-05-05 14:25 | 13.63500 | 92.63054 | 33878 ft | 501 kts | 315° |
| 2026-05-05 14:26 | 13.68462 | 92.58095 | 33878 ft | 501 kts | 315° |
| 2026-05-05 14:26 | 13.73458 | 92.53096 | 33878 ft | 501 kts | 315° |
| 2026-05-05 14:27 | 13.78454 | 92.48094 | 33878 ft | 501 kts | 315° |
| 2026-05-05 14:27 | 13.83450 | 92.43091 | 33880 ft | 501 kts | 315° |
| 2026-05-05 14:28 | 13.88449 | 92.38082 | 33877 ft | 502 kts | 315° |
| 2026-05-05 14:28 | 13.93448 | 92.33067 | 33882 ft | 502 kts | 315° |
| 2026-05-05 14:29 | 13.98384 | 92.27989 | 33878 ft | 502 kts | 314° |
| 2026-05-05 14:29 | 14.03239 | 92.22826 | 33876 ft | 502 kts | 314° |
| 2026-05-05 14:30 | 14.08103 | 92.17664 | 33878 ft | 502 kts | 314° |
| 2026-05-05 14:30 | 14.12978 | 92.12520 | 33882 ft | 502 kts | 314° |
| 2026-05-05 14:31 | 14.17828 | 92.07412 | 33878 ft | 502 kts | 314° |
| 2026-05-05 14:31 | 14.22709 | 92.02270 | 33880 ft | 502 kts | 314° |
| 2026-05-05 14:32 | 14.27599 | 91.97141 | 33878 ft | 502 kts | 315° |
| 2026-05-05 14:32 | 14.32554 | 91.92073 | 33878 ft | 502 kts | 315° |
| 2026-05-05 14:33 | 14.37518 | 91.87017 | 33879 ft | 501 kts | 315° |
| 2026-05-05 14:33 | 14.42469 | 91.81953 | 33878 ft | 502 kts | 315° |
| 2026-05-05 14:34 | 14.47417 | 91.76877 | 33878 ft | 501 kts | 315° |
| 2026-05-05 14:34 | 14.52363 | 91.71800 | 33878 ft | 501 kts | 315° |
| 2026-05-05 14:35 | 14.57303 | 91.66728 | 33878 ft | 501 kts | 314° |
| 2026-05-05 14:35 | 14.62247 | 91.61643 | 33878 ft | 501 kts | 314° |
| 2026-05-05 14:36 | 14.67181 | 91.56567 | 33878 ft | 501 kts | 314° |
| 2026-05-05 14:36 | 14.72113 | 91.51491 | 33877 ft | 500 kts | 314° |
| 2026-05-05 14:37 | 14.77043 | 91.46417 | 33878 ft | 500 kts | 314° |
| 2026-05-05 14:37 | 14.81967 | 91.41337 | 33878 ft | 500 kts | 314° |
| 2026-05-05 14:38 | 14.86893 | 91.36254 | 33878 ft | 500 kts | 314° |
| 2026-05-05 14:38 | 14.91814 | 91.31172 | 33878 ft | 500 kts | 314° |
| 2026-05-05 14:39 | 14.96736 | 91.26092 | 33878 ft | 500 kts | 314° |
| 2026-05-05 14:39 | 15.01655 | 91.21007 | 33884 ft | 500 kts | 314° |
| 2026-05-05 14:40 | 15.06571 | 91.15920 | 33878 ft | 500 kts | 314° |
| 2026-05-05 14:40 | 15.11488 | 91.10829 | 33881 ft | 499 kts | 314° |
| 2026-05-05 14:41 | 15.16359 | 91.05781 | 33878 ft | 499 kts | 314° |
| 2026-05-05 14:41 | 15.21274 | 91.00689 | 33878 ft | 500 kts | 314° |
| 2026-05-05 14:42 | 15.26182 | 90.95600 | 33878 ft | 500 kts | 314° |
| 2026-05-05 14:42 | 15.30297 | 90.91328 | 33880 ft | 499 kts | 314° |
| 2026-05-05 14:43 | 15.35170 | 90.86268 | 33878 ft | 500 kts | 314° |
| 2026-05-05 14:43 | 15.40076 | 90.81170 | 33878 ft | 499 kts | 314° |
| 2026-05-05 14:44 | 15.44982 | 90.76070 | 33878 ft | 500 kts | 314° |
| 2026-05-05 14:44 | 15.49888 | 90.70962 | 33878 ft | 500 kts | 314° |
| 2026-05-05 14:45 | 15.54794 | 90.65852 | 33878 ft | 500 kts | 314° |
| 2026-05-05 14:45 | 15.59699 | 90.60740 | 33878 ft | 500 kts | 314° |
| 2026-05-05 14:46 | 15.64602 | 90.55627 | 33878 ft | 500 kts | 314° |
| 2026-05-05 14:46 | 15.69506 | 90.50508 | 33869 ft | 500 kts | 314° |
| 2026-05-05 14:47 | 15.74410 | 90.45385 | 33872 ft | 500 kts | 313° |
| 2026-05-05 14:47 | 15.79317 | 90.40256 | 33869 ft | 500 kts | 313° |
| 2026-05-05 14:48 | 15.84213 | 90.35133 | 33869 ft | 500 kts | 313° |
| 2026-05-05 14:48 | 15.89117 | 90.30001 | 33869 ft | 500 kts | 313° |
| 2026-05-05 14:49 | 15.94017 | 90.24867 | 33869 ft | 500 kts | 313° |
| 2026-05-05 14:49 | 15.98884 | 90.19763 | 33869 ft | 500 kts | 313° |
| 2026-05-05 14:50 | 16.03788 | 90.14634 | 33869 ft | 501 kts | 314° |
| 2026-05-05 14:50 | 16.08758 | 90.09562 | 33870 ft | 500 kts | 314° |
| 2026-05-05 14:51 | 16.13739 | 90.04504 | 33869 ft | 501 kts | 314° |
| 2026-05-05 14:51 | 16.18717 | 89.99435 | 33872 ft | 501 kts | 314° |
| 2026-05-05 14:52 | 16.23682 | 89.94361 | 33869 ft | 500 kts | 314° |
| 2026-05-05 14:52 | 16.28649 | 89.89279 | 33869 ft | 501 kts | 314° |
| 2026-05-05 14:53 | 16.33616 | 89.84190 | 33869 ft | 501 kts | 314° |
| 2026-05-05 14:53 | 16.38577 | 89.79104 | 33869 ft | 501 kts | 314° |
| 2026-05-05 14:54 | 16.43541 | 89.74014 | 33869 ft | 501 kts | 314° |
| 2026-05-05 14:54 | 16.48503 | 89.68918 | 33869 ft | 501 kts | 314° |
| 2026-05-05 14:55 | 16.53465 | 89.63820 | 33869 ft | 501 kts | 314° |
| 2026-05-05 14:55 | 16.58429 | 89.58717 | 33869 ft | 501 kts | 314° |
| 2026-05-05 14:56 | 16.63394 | 89.53611 | 33869 ft | 501 kts | 314° |
| 2026-05-05 14:56 | 16.68354 | 89.48502 | 33869 ft | 501 kts | 314° |
| 2026-05-05 14:57 | 16.73311 | 89.43394 | 33869 ft | 501 kts | 314° |
| 2026-05-05 14:57 | 16.78269 | 89.38278 | 33869 ft | 501 kts | 314° |
| 2026-05-05 14:58 | 16.83227 | 89.33161 | 33869 ft | 501 kts | 314° |
| 2026-05-05 14:58 | 16.88185 | 89.28040 | 33869 ft | 501 kts | 314° |
| 2026-05-05 14:59 | 16.93108 | 89.22951 | 33869 ft | 501 kts | 313° |
| 2026-05-05 14:59 | 16.98065 | 89.17825 | 33861 ft | 502 kts | 313° |
| 2026-05-05 15:00 | 17.02215 | 89.13529 | 33860 ft | 502 kts | 313° |
| 2026-05-05 15:00 | 17.07972 | 89.07562 | 33860 ft | 501 kts | 313° |
| 2026-05-05 15:01 | 17.12922 | 89.02428 | 33860 ft | 501 kts | 313° |
| 2026-05-05 15:01 | 17.17875 | 88.97289 | 33860 ft | 501 kts | 313° |
| 2026-05-05 15:02 | 17.22837 | 88.92161 | 33859 ft | 501 kts | 314° |
| 2026-05-05 15:02 | 17.27835 | 88.87069 | 33860 ft | 502 kts | 314° |
| 2026-05-05 15:03 | 17.32839 | 88.81976 | 33860 ft | 502 kts | 314° |
| 2026-05-05 15:03 | 17.37837 | 88.76881 | 33859 ft | 502 kts | 314° |
| 2026-05-05 15:04 | 17.42831 | 88.71774 | 33859 ft | 501 kts | 314° |
| 2026-05-05 15:04 | 17.47815 | 88.66663 | 33859 ft | 502 kts | 314° |
| 2026-05-05 15:05 | 17.55254 | 88.59029 | 33860 ft | 501 kts | 314° |
| 2026-05-05 15:06 | 17.60237 | 88.53921 | 33861 ft | 501 kts | 314° |
| 2026-05-05 15:06 | 17.65218 | 88.48808 | 33860 ft | 501 kts | 314° |
| 2026-05-05 15:07 | 17.70199 | 88.43690 | 33860 ft | 501 kts | 314° |
| 2026-05-05 15:07 | 17.75181 | 88.38566 | 33860 ft | 501 kts | 314° |
| 2026-05-05 15:08 | 17.80155 | 88.33447 | 33860 ft | 501 kts | 314° |
| 2026-05-05 15:08 | 17.85134 | 88.28321 | 33869 ft | 501 kts | 313° |
| 2026-05-05 15:09 | 17.90106 | 88.23194 | 33869 ft | 501 kts | 313° |
| 2026-05-05 15:09 | 17.95073 | 88.18064 | 33869 ft | 501 kts | 313° |
| 2026-05-05 15:10 | 18.00046 | 88.12929 | 33870 ft | 501 kts | 313° |
| 2026-05-05 15:10 | 18.05015 | 88.07794 | 33860 ft | 501 kts | 313° |
| 2026-05-05 15:11 | 18.09983 | 88.02653 | 33860 ft | 501 kts | 313° |
| 2026-05-05 15:11 | 18.14946 | 87.97513 | 33859 ft | 501 kts | 313° |
| 2026-05-05 15:12 | 18.19916 | 87.92364 | 33860 ft | 502 kts | 313° |
| 2026-05-05 15:12 | 18.24886 | 87.87212 | 33860 ft | 502 kts | 313° |
| 2026-05-05 15:13 | 18.29859 | 87.82055 | 33860 ft | 502 kts | 314° |
| 2026-05-05 15:13 | 18.34868 | 87.76942 | 33860 ft | 502 kts | 314° |
| 2026-05-05 15:14 | 18.39898 | 87.71839 | 33860 ft | 502 kts | 314° |
| 2026-05-05 15:14 | 18.44881 | 87.66771 | 33860 ft | 502 kts | 314° |
| 2026-05-05 15:15 | 18.49895 | 87.61657 | 33860 ft | 501 kts | 314° |
| 2026-05-05 15:15 | 18.54905 | 87.56541 | 33860 ft | 501 kts | 314° |
| 2026-05-05 15:16 | 18.59910 | 87.51425 | 33859 ft | 502 kts | 314° |
| 2026-05-05 15:16 | 18.64915 | 87.46308 | 33860 ft | 501 kts | 314° |
| 2026-05-05 15:17 | 18.69911 | 87.41190 | 33860 ft | 501 kts | 314° |
| 2026-05-05 15:17 | 18.74913 | 87.36062 | 33860 ft | 500 kts | 314° |
| 2026-05-05 15:18 | 18.79905 | 87.30944 | 33860 ft | 501 kts | 314° |
| 2026-05-05 15:18 | 18.84897 | 87.25818 | 33860 ft | 500 kts | 314° |
| 2026-05-05 15:19 | 18.89883 | 87.20693 | 33860 ft | 500 kts | 314° |
| 2026-05-05 15:19 | 18.94868 | 87.15567 | 33860 ft | 500 kts | 314° |
| 2026-05-05 15:20 | 18.99852 | 87.10435 | 33860 ft | 500 kts | 314° |
| 2026-05-05 15:20 | 19.04832 | 87.05304 | 33860 ft | 500 kts | 314° |
| 2026-05-05 15:21 | 19.09779 | 87.00202 | 33860 ft | 500 kts | 314° |
| 2026-05-05 15:21 | 19.14758 | 86.95066 | 33860 ft | 500 kts | 314° |
| 2026-05-05 15:22 | 19.19733 | 86.89931 | 33860 ft | 500 kts | 314° |
| 2026-05-05 15:22 | 19.24704 | 86.84791 | 33860 ft | 500 kts | 314° |
| 2026-05-05 15:23 | 19.29668 | 86.79652 | 33860 ft | 500 kts | 314° |
| 2026-05-05 15:23 | 19.34633 | 86.74507 | 33860 ft | 500 kts | 314° |
| 2026-05-05 15:24 | 19.39600 | 86.69357 | 33860 ft | 499 kts | 314° |
| 2026-05-05 15:24 | 19.44557 | 86.64214 | 33860 ft | 499 kts | 314° |
| 2026-05-05 15:25 | 19.49515 | 86.59065 | 33860 ft | 499 kts | 314° |
| 2026-05-05 15:25 | 19.54469 | 86.53916 | 33860 ft | 499 kts | 314° |
| 2026-05-05 15:26 | 19.59419 | 86.48764 | 33860 ft | 499 kts | 314° |
| 2026-05-05 15:26 | 19.61894 | 86.46189 | 34013 ft | 497 kts | 314° |
| 2026-05-05 15:26 | 19.64354 | 86.43629 | 34365 ft | 493 kts | 313° |
| 2026-05-05 15:26 | 19.66783 | 86.41082 | 34614 ft | 491 kts | 313° |
| 2026-05-05 15:27 | 19.69175 | 86.38562 | 34795 ft | 490 kts | 313° |
| 2026-05-05 15:27 | 19.71621 | 86.35980 | 35002 ft | 489 kts | 313° |
| 2026-05-05 15:27 | 19.74001 | 86.33468 | 35135 ft | 489 kts | 313° |
| 2026-05-05 15:27 | 19.76413 | 86.30923 | 35289 ft | 489 kts | 313° |
| 2026-05-05 15:28 | 19.78821 | 86.28384 | 35427 ft | 489 kts | 313° |
| 2026-05-05 15:28 | 19.81236 | 86.25840 | 35552 ft | 488 kts | 313° |
| 2026-05-05 15:28 | 19.83642 | 86.23301 | 35656 ft | 488 kts | 313° |
| 2026-05-05 15:28 | 19.86054 | 86.20756 | 35762 ft | 489 kts | 313° |
| 2026-05-05 15:29 | 19.88468 | 86.18209 | 35852 ft | 489 kts | 313° |
| 2026-05-05 15:29 | 19.93332 | 86.13102 | 35854 ft | 494 kts | 314° |
| 2026-05-05 15:30 | 19.98293 | 86.08034 | 35855 ft | 495 kts | 314° |
| 2026-05-05 15:30 | 20.03262 | 86.02988 | 35868 ft | 494 kts | 314° |
| 2026-05-05 15:31 | 20.08222 | 85.97927 | 35870 ft | 494 kts | 314° |
| 2026-05-05 15:31 | 20.13172 | 85.92859 | 35858 ft | 494 kts | 314° |
| 2026-05-05 15:32 | 20.18119 | 85.87784 | 35864 ft | 494 kts | 314° |
| 2026-05-05 15:32 | 20.23065 | 85.82702 | 35865 ft | 494 kts | 314° |
| 2026-05-05 15:33 | 20.27654 | 85.77270 | 35870 ft | 493 kts | 309° |
| 2026-05-05 15:33 | 20.32103 | 85.71721 | 35865 ft | 492 kts | 308° |
| 2026-05-05 15:34 | 20.35781 | 85.67087 | 35855 ft | 493 kts | 308° |
| 2026-05-05 15:34 | 20.40207 | 85.61507 | 35867 ft | 493 kts | 308° |
| 2026-05-05 15:35 | 20.44638 | 85.55931 | 35854 ft | 493 kts | 308° |
| 2026-05-05 15:35 | 20.49067 | 85.50358 | 35862 ft | 493 kts | 308° |
| 2026-05-05 15:36 | 20.53500 | 85.44774 | 35854 ft | 493 kts | 308° |
| 2026-05-05 15:36 | 20.57923 | 85.39193 | 35853 ft | 493 kts | 308° |
| 2026-05-05 15:37 | 20.62351 | 85.33603 | 35844 ft | 493 kts | 308° |
| 2026-05-05 15:37 | 20.66770 | 85.28019 | 35845 ft | 493 kts | 308° |
| 2026-05-05 15:38 | 20.71193 | 85.22422 | 35849 ft | 493 kts | 308° |
| 2026-05-05 15:38 | 20.75615 | 85.16825 | 35845 ft | 493 kts | 308° |
| 2026-05-05 15:39 | 20.80030 | 85.11227 | 35848 ft | 493 kts | 308° |
| 2026-05-05 15:39 | 20.84445 | 85.05622 | 35846 ft | 493 kts | 308° |
| 2026-05-05 15:40 | 20.88856 | 85.00021 | 35846 ft | 493 kts | 308° |
| 2026-05-05 15:40 | 20.93266 | 84.94412 | 35868 ft | 492 kts | 308° |
| 2026-05-05 15:41 | 20.97672 | 84.88801 | 35853 ft | 493 kts | 308° |
| 2026-05-05 15:41 | 21.02077 | 84.83187 | 35874 ft | 492 kts | 308° |
| 2026-05-05 15:42 | 21.06479 | 84.77577 | 35880 ft | 492 kts | 308° |
| 2026-05-05 15:42 | 21.10878 | 84.71966 | 35881 ft | 492 kts | 308° |
| 2026-05-05 15:43 | 21.15247 | 84.66384 | 35880 ft | 492 kts | 308° |
| 2026-05-05 15:43 | 21.19637 | 84.60764 | 35881 ft | 492 kts | 308° |
| 2026-05-05 15:44 | 21.24030 | 84.55136 | 35861 ft | 492 kts | 308° |
| 2026-05-05 15:44 | 21.28415 | 84.49516 | 35882 ft | 491 kts | 308° |
| 2026-05-05 15:45 | 21.32799 | 84.43894 | 35887 ft | 491 kts | 308° |
| 2026-05-05 15:45 | 21.37180 | 84.38270 | 35886 ft | 490 kts | 308° |
| 2026-05-05 15:46 | 21.41549 | 84.32652 | 35889 ft | 490 kts | 308° |
| 2026-05-05 15:46 | 21.45917 | 84.27029 | 35887 ft | 490 kts | 308° |
| 2026-05-05 15:47 | 21.50277 | 84.21412 | 35898 ft | 490 kts | 307° |
| 2026-05-05 15:47 | 21.54638 | 84.15790 | 35897 ft | 490 kts | 307° |
| 2026-05-05 15:48 | 21.58997 | 84.10160 | 35897 ft | 490 kts | 307° |
| 2026-05-05 15:48 | 21.63347 | 84.04537 | 35906 ft | 489 kts | 307° |
| 2026-05-05 15:49 | 21.67699 | 83.98907 | 35906 ft | 489 kts | 307° |
| 2026-05-05 15:49 | 21.72042 | 83.93281 | 35906 ft | 489 kts | 307° |
| 2026-05-05 15:50 | 21.76385 | 83.87651 | 35906 ft | 489 kts | 307° |
| 2026-05-05 15:50 | 21.80694 | 83.82058 | 35906 ft | 489 kts | 307° |
| 2026-05-05 15:51 | 21.85030 | 83.76426 | 35907 ft | 489 kts | 307° |
| 2026-05-05 15:51 | 21.89364 | 83.70789 | 35907 ft | 489 kts | 307° |
| 2026-05-05 15:52 | 21.93704 | 83.65139 | 35902 ft | 489 kts | 307° |
| 2026-05-05 15:52 | 21.98035 | 83.59497 | 35897 ft | 489 kts | 307° |
| 2026-05-05 15:53 | 22.02363 | 83.53851 | 35893 ft | 489 kts | 307° |
| 2026-05-05 15:53 | 22.06692 | 83.48198 | 35887 ft | 488 kts | 307° |
| 2026-05-05 15:54 | 22.10980 | 83.42524 | 35888 ft | 488 kts | 306° |
| 2026-05-05 15:54 | 22.15181 | 83.36775 | 35880 ft | 488 kts | 306° |
| 2026-05-05 15:55 | 22.19387 | 83.31023 | 35880 ft | 488 kts | 306° |
| 2026-05-05 15:55 | 22.23699 | 83.25363 | 35864 ft | 488 kts | 308° |
| 2026-05-05 15:56 | 22.28068 | 83.19744 | 35888 ft | 489 kts | 308° |
| 2026-05-05 15:56 | 22.32425 | 83.14112 | 35879 ft | 489 kts | 307° |
| 2026-05-05 15:57 | 22.36769 | 83.08462 | 35881 ft | 489 kts | 307° |
| 2026-05-05 15:57 | 22.41103 | 83.02809 | 35879 ft | 488 kts | 307° |
| 2026-05-05 15:58 | 22.45406 | 82.97191 | 35880 ft | 488 kts | 307° |
| 2026-05-05 15:58 | 22.49735 | 82.91532 | 35868 ft | 489 kts | 307° |
| 2026-05-05 15:59 | 22.54066 | 82.85866 | 35860 ft | 488 kts | 307° |
| 2026-05-05 15:59 | 22.58396 | 82.80194 | 35873 ft | 489 kts | 307° |
| 2026-05-05 16:00 | 22.62721 | 82.74525 | 35858 ft | 488 kts | 307° |
| 2026-05-05 16:00 | 22.67045 | 82.68852 | 35857 ft | 488 kts | 307° |
| 2026-05-05 16:01 | 22.71358 | 82.63184 | 35854 ft | 488 kts | 307° |
| 2026-05-05 16:01 | 22.75669 | 82.57513 | 35847 ft | 488 kts | 307° |
| 2026-05-05 16:02 | 22.79985 | 82.51833 | 35855 ft | 488 kts | 307° |
| 2026-05-05 16:02 | 22.84293 | 82.46152 | 35848 ft | 488 kts | 307° |
| 2026-05-05 16:03 | 22.88596 | 82.40472 | 35854 ft | 487 kts | 307° |
| 2026-05-05 16:03 | 22.92899 | 82.34787 | 35847 ft | 487 kts | 307° |
| 2026-05-05 16:04 | 22.97194 | 82.29109 | 35852 ft | 487 kts | 307° |
| 2026-05-05 16:04 | 23.01465 | 82.23456 | 35845 ft | 487 kts | 307° |
| 2026-05-05 16:05 | 23.05787 | 82.17728 | 35845 ft | 487 kts | 307° |
| 2026-05-05 16:05 | 23.10117 | 82.12077 | 35844 ft | 487 kts | 308° |
| 2026-05-05 16:06 | 23.14539 | 82.06502 | 35855 ft | 487 kts | 308° |
| 2026-05-05 16:06 | 23.18932 | 82.00963 | 35852 ft | 487 kts | 308° |
| 2026-05-05 16:07 | 23.23336 | 81.95375 | 35840 ft | 486 kts | 308° |
| 2026-05-05 16:07 | 23.27726 | 81.89785 | 35840 ft | 486 kts | 308° |
| 2026-05-05 16:08 | 23.32106 | 81.84194 | 35842 ft | 486 kts | 308° |
| 2026-05-05 16:08 | 23.36487 | 81.78598 | 35840 ft | 485 kts | 308° |
| 2026-05-05 16:09 | 23.40865 | 81.72999 | 35842 ft | 485 kts | 308° |
| 2026-05-05 16:09 | 23.45238 | 81.67401 | 35838 ft | 485 kts | 308° |
| 2026-05-05 16:10 | 23.49208 | 81.62317 | 35844 ft | 485 kts | 308° |
| 2026-05-05 16:10 | 23.53580 | 81.56707 | 35858 ft | 485 kts | 308° |
| 2026-05-05 16:11 | 23.57945 | 81.51101 | 35857 ft | 485 kts | 308° |
| 2026-05-05 16:12 | 23.66669 | 81.39877 | 35847 ft | 485 kts | 308° |
| 2026-05-05 16:13 | 23.77538 | 81.25862 | 35847 ft | 485 kts | 307° |
| 2026-05-05 16:13 | 23.81891 | 81.20236 | 35851 ft | 485 kts | 307° |
| 2026-05-05 16:14 | 23.90594 | 81.08967 | 35856 ft | 485 kts | 307° |
| 2026-05-05 16:15 | 23.99295 | 80.97685 | 35859 ft | 485 kts | 307° |
| 2026-05-05 16:16 | 24.07965 | 80.86410 | 35858 ft | 484 kts | 307° |
| 2026-05-05 16:17 | 24.14459 | 80.77951 | 35860 ft | 484 kts | 307° |
| 2026-05-05 16:18 | 24.20919 | 80.69516 | 35869 ft | 484 kts | 307° |
| 2026-05-05 16:19 | 24.27403 | 80.61039 | 35881 ft | 484 kts | 307° |
| 2026-05-05 16:19 | 24.33881 | 80.52554 | 35880 ft | 484 kts | 307° |
| 2026-05-05 16:20 | 24.42510 | 80.41226 | 35881 ft | 484 kts | 307° |
| 2026-05-05 16:22 | 24.53278 | 80.27057 | 35881 ft | 483 kts | 307° |
| 2026-05-05 16:23 | 24.61876 | 80.15712 | 35881 ft | 483 kts | 307° |
| 2026-05-05 16:23 | 24.67599 | 80.08148 | 35871 ft | 483 kts | 307° |
| 2026-05-05 16:24 | 24.72591 | 80.01539 | 35881 ft | 483 kts | 307° |
| 2026-05-05 16:25 | 24.79016 | 79.92993 | 35865 ft | 482 kts | 305° |
| 2026-05-05 16:25 | 24.83721 | 79.84649 | 35888 ft | 479 kts | 297° |
| 2026-05-05 16:26 | 24.90173 | 79.71860 | 35887 ft | 479 kts | 297° |
| 2026-05-05 16:27 | 24.93404 | 79.65441 | 35889 ft | 479 kts | 297° |
| 2026-05-05 16:27 | 24.96640 | 79.59023 | 35887 ft | 479 kts | 297° |
| 2026-05-05 16:28 | 24.99877 | 79.52604 | 35888 ft | 479 kts | 297° |
| 2026-05-05 16:28 | 25.03111 | 79.46179 | 35888 ft | 479 kts | 297° |
| 2026-05-05 16:29 | 25.06341 | 79.39750 | 35895 ft | 479 kts | 297° |
| 2026-05-05 16:29 | 25.09565 | 79.33323 | 35897 ft | 479 kts | 297° |
| 2026-05-05 16:30 | 25.12784 | 79.26898 | 35897 ft | 478 kts | 297° |
| 2026-05-05 16:30 | 25.16005 | 79.20465 | 35897 ft | 479 kts | 297° |
| 2026-05-05 16:31 | 25.19219 | 79.14032 | 35897 ft | 479 kts | 297° |
| 2026-05-05 16:31 | 25.22430 | 79.07593 | 35897 ft | 478 kts | 297° |
| 2026-05-05 16:32 | 25.25642 | 79.01154 | 35896 ft | 478 kts | 297° |
| 2026-05-05 16:32 | 25.28846 | 78.94721 | 35897 ft | 478 kts | 297° |
| 2026-05-05 16:33 | 25.32048 | 78.88273 | 35898 ft | 479 kts | 297° |
| 2026-05-05 16:33 | 25.35248 | 78.81821 | 35897 ft | 478 kts | 297° |
| 2026-05-05 16:34 | 25.38444 | 78.75374 | 35904 ft | 479 kts | 297° |
| 2026-05-05 16:34 | 25.41617 | 78.68962 | 35906 ft | 478 kts | 297° |
| 2026-05-05 16:35 | 25.44805 | 78.62512 | 35906 ft | 478 kts | 297° |
| 2026-05-05 16:35 | 25.47988 | 78.56063 | 35906 ft | 478 kts | 297° |
| 2026-05-05 16:36 | 25.51171 | 78.49605 | 35906 ft | 478 kts | 297° |
| 2026-05-05 16:36 | 25.54352 | 78.43139 | 35906 ft | 478 kts | 297° |
| 2026-05-05 16:37 | 25.57555 | 78.36699 | 35904 ft | 478 kts | 300° |
| 2026-05-05 16:37 | 25.61767 | 78.30992 | 35906 ft | 482 kts | 316° |
| 2026-05-05 16:38 | 25.67410 | 78.26962 | 35910 ft | 488 kts | 333° |
| 2026-05-05 16:38 | 25.73687 | 78.24029 | 35907 ft | 490 kts | 335° |
| 2026-05-05 16:39 | 25.80036 | 78.21272 | 35906 ft | 490 kts | 335° |
| 2026-05-05 16:39 | 25.86383 | 78.18494 | 35906 ft | 490 kts | 335° |
| 2026-05-05 16:40 | 25.92723 | 78.15677 | 35906 ft | 490 kts | 335° |
| 2026-05-05 16:40 | 25.99049 | 78.12848 | 35906 ft | 490 kts | 335° |
| 2026-05-05 16:41 | 26.05371 | 78.10016 | 35906 ft | 490 kts | 335° |
| 2026-05-05 16:41 | 26.11700 | 78.07177 | 35906 ft | 490 kts | 335° |
| 2026-05-05 16:42 | 26.18021 | 78.04342 | 35907 ft | 490 kts | 335° |
| 2026-05-05 16:42 | 26.24348 | 78.01498 | 35906 ft | 490 kts | 335° |
| 2026-05-05 16:43 | 26.30632 | 77.98670 | 35906 ft | 490 kts | 335° |
| 2026-05-05 16:43 | 26.36957 | 77.95822 | 35906 ft | 490 kts | 335° |
| 2026-05-05 16:44 | 26.43283 | 77.92970 | 35906 ft | 490 kts | 335° |
| 2026-05-05 16:44 | 26.49608 | 77.90116 | 35897 ft | 490 kts | 335° |
| 2026-05-05 16:45 | 26.55937 | 77.87286 | 35897 ft | 490 kts | 335° |
| 2026-05-05 16:45 | 26.62286 | 77.84501 | 35888 ft | 490 kts | 335° |
| 2026-05-05 16:46 | 26.68628 | 77.81720 | 35879 ft | 490 kts | 335° |
| 2026-05-05 16:46 | 26.74964 | 77.78927 | 35880 ft | 490 kts | 335° |
| 2026-05-05 16:47 | 26.81317 | 77.76122 | 35868 ft | 490 kts | 335° |
| 2026-05-05 16:47 | 26.87652 | 77.73320 | 35873 ft | 489 kts | 335° |
| 2026-05-05 16:48 | 26.93984 | 77.70515 | 35873 ft | 489 kts | 335° |
| 2026-05-05 16:48 | 27.00318 | 77.67703 | 35865 ft | 490 kts | 335° |
| 2026-05-05 16:49 | 27.06649 | 77.64890 | 35870 ft | 489 kts | 335° |
| 2026-05-05 16:49 | 27.12975 | 77.62080 | 35871 ft | 489 kts | 335° |
| 2026-05-05 16:50 | 27.19308 | 77.59264 | 35863 ft | 489 kts | 335° |
| 2026-05-05 16:50 | 27.25634 | 77.56576 | 35871 ft | 490 kts | 339° |
| 2026-05-05 16:51 | 27.32157 | 77.54302 | 35869 ft | 491 kts | 340° |
| 2026-05-05 16:51 | 27.38705 | 77.52080 | 35870 ft | 491 kts | 340° |
| 2026-05-05 16:52 | 27.45224 | 77.49794 | 35881 ft | 491 kts | 340° |
| 2026-05-05 16:52 | 27.51730 | 77.47465 | 35864 ft | 491 kts | 339° |
| 2026-05-05 16:53 | 27.58236 | 77.45131 | 35883 ft | 491 kts | 339° |
| 2026-05-05 16:53 | 27.64739 | 77.42787 | 35887 ft | 491 kts | 339° |
| 2026-05-05 16:54 | 27.71239 | 77.40438 | 35893 ft | 491 kts | 339° |
| 2026-05-05 16:54 | 27.77741 | 77.38091 | 35897 ft | 491 kts | 340° |
| 2026-05-05 16:55 | 27.84244 | 77.35742 | 35905 ft | 490 kts | 339° |
| 2026-05-05 16:55 | 27.90740 | 77.33391 | 35906 ft | 490 kts | 339° |
| 2026-05-05 16:56 | 27.97237 | 77.31035 | 35918 ft | 490 kts | 339° |
| 2026-05-05 16:56 | 28.03725 | 77.28679 | 35924 ft | 490 kts | 339° |
| 2026-05-05 16:57 | 28.10221 | 77.26322 | 35925 ft | 490 kts | 339° |
| 2026-05-05 16:57 | 28.16721 | 77.23958 | 35932 ft | 491 kts | 339° |
| 2026-05-05 16:58 | 28.23224 | 77.21591 | 35939 ft | 490 kts | 339° |
| 2026-05-05 16:58 | 28.29718 | 77.19224 | 35934 ft | 490 kts | 339° |
| 2026-05-05 16:59 | 28.36215 | 77.16851 | 35935 ft | 490 kts | 339° |
| 2026-05-05 16:59 | 28.42714 | 77.14477 | 35933 ft | 490 kts | 339° |
| 2026-05-05 17:00 | 28.48950 | 77.11577 | 35937 ft | 486 kts | 327° |
| 2026-05-05 17:00 | 28.54167 | 77.06822 | 35936 ft | 480 kts | 310° |
| 2026-05-05 17:01 | 28.57730 | 77.00426 | 35933 ft | 477 kts | 291° |
| 2026-05-05 17:01 | 28.59459 | 76.93209 | 35942 ft | 476 kts | 281° |
| 2026-05-05 17:02 | 28.60670 | 76.85792 | 35943 ft | 477 kts | 280° |
| 2026-05-05 17:02 | 28.61828 | 76.78356 | 35944 ft | 477 kts | 280° |
| 2026-05-05 17:03 | 28.63016 | 76.70935 | 35935 ft | 478 kts | 280° |
| 2026-05-05 17:03 | 28.64222 | 76.63489 | 35934 ft | 478 kts | 280° |
| 2026-05-05 17:04 | 28.65373 | 76.56047 | 35935 ft | 477 kts | 279° |
| 2026-05-05 17:04 | 28.66432 | 76.48592 | 35934 ft | 477 kts | 279° |
| 2026-05-05 17:05 | 28.67484 | 76.41135 | 35934 ft | 477 kts | 279° |
| 2026-05-05 17:05 | 28.68548 | 76.33682 | 35934 ft | 477 kts | 279° |
| 2026-05-05 17:06 | 28.69610 | 76.26283 | 35934 ft | 477 kts | 279° |
| 2026-05-05 17:06 | 28.70685 | 76.18775 | 35934 ft | 477 kts | 279° |
| 2026-05-05 17:07 | 28.71739 | 76.11369 | 35934 ft | 477 kts | 279° |
| 2026-05-05 17:07 | 28.72797 | 76.03911 | 35934 ft | 477 kts | 279° |
| 2026-05-05 17:08 | 28.73851 | 75.96444 | 35934 ft | 477 kts | 279° |
| 2026-05-05 17:08 | 28.74734 | 75.88962 | 35933 ft | 477 kts | 273° |
| 2026-05-05 17:09 | 28.74441 | 75.81407 | 35934 ft | 478 kts | 266° |
| 2026-05-05 17:09 | 28.73807 | 75.73867 | 35934 ft | 478 kts | 265° |
| 2026-05-05 17:10 | 28.73116 | 75.66334 | 35938 ft | 478 kts | 265° |
| 2026-05-05 17:10 | 28.72433 | 75.58801 | 35916 ft | 478 kts | 265° |
| 2026-05-05 17:11 | 28.71759 | 75.51268 | 35915 ft | 478 kts | 265° |
| 2026-05-05 17:11 | 28.71091 | 75.43744 | 35915 ft | 478 kts | 265° |
| 2026-05-05 17:12 | 28.70412 | 75.36197 | 35915 ft | 478 kts | 265° |
| 2026-05-05 17:12 | 28.69732 | 75.28653 | 35916 ft | 479 kts | 265° |
| 2026-05-05 17:13 | 28.69046 | 75.21115 | 35915 ft | 479 kts | 265° |
| 2026-05-05 17:13 | 28.68352 | 75.13573 | 35915 ft | 479 kts | 265° |
| 2026-05-05 17:14 | 28.67655 | 75.06037 | 35925 ft | 479 kts | 265° |
| 2026-05-05 17:14 | 28.67074 | 74.99766 | 35924 ft | 478 kts | 265° |
| 2026-05-05 17:15 | 28.66374 | 74.92235 | 35925 ft | 478 kts | 265° |
| 2026-05-05 17:15 | 28.65667 | 74.84703 | 35927 ft | 479 kts | 265° |
| 2026-05-05 17:16 | 28.64954 | 74.77166 | 35925 ft | 479 kts | 265° |
| 2026-05-05 17:16 | 28.64239 | 74.69632 | 35925 ft | 479 kts | 265° |
| 2026-05-05 17:17 | 28.63521 | 74.62104 | 35925 ft | 478 kts | 265° |
| 2026-05-05 17:17 | 28.62798 | 74.54575 | 35920 ft | 479 kts | 265° |
| 2026-05-05 17:18 | 28.62069 | 74.47043 | 35916 ft | 479 kts | 265° |
| 2026-05-05 17:18 | 28.61338 | 74.39507 | 35915 ft | 479 kts | 265° |
| 2026-05-05 17:19 | 28.60605 | 74.32021 | 35916 ft | 479 kts | 265° |
| 2026-05-05 17:19 | 28.59858 | 74.24445 | 35915 ft | 479 kts | 265° |
| 2026-05-05 17:20 | 28.59114 | 74.16918 | 35924 ft | 479 kts | 265° |
| 2026-05-05 17:20 | 28.58372 | 74.09437 | 35915 ft | 479 kts | 265° |
| 2026-05-05 17:21 | 28.57620 | 74.01908 | 35915 ft | 479 kts | 265° |
| 2026-05-05 17:22 | 28.56483 | 73.90624 | 35915 ft | 479 kts | 265° |
| 2026-05-05 17:22 | 28.55720 | 73.83099 | 35915 ft | 479 kts | 265° |
| 2026-05-05 17:23 | 28.54995 | 73.75580 | 35906 ft | 478 kts | 267° |
| 2026-05-05 17:23 | 28.54674 | 73.68035 | 35906 ft | 477 kts | 270° |
| 2026-05-05 17:24 | 28.54460 | 73.60487 | 35906 ft | 478 kts | 269° |
| 2026-05-05 17:24 | 28.54188 | 73.52949 | 35905 ft | 478 kts | 269° |
| 2026-05-05 17:25 | 28.53866 | 73.45401 | 35897 ft | 478 kts | 269° |
| 2026-05-05 17:25 | 28.53533 | 73.37855 | 35897 ft | 478 kts | 269° |
| 2026-05-05 17:26 | 28.53194 | 73.30305 | 35897 ft | 478 kts | 269° |
| 2026-05-05 17:26 | 28.52853 | 73.22758 | 35897 ft | 478 kts | 269° |
| 2026-05-05 17:27 | 28.52508 | 73.15217 | 35896 ft | 478 kts | 269° |
| 2026-05-05 17:27 | 28.52159 | 73.07671 | 35898 ft | 478 kts | 269° |
| 2026-05-05 17:28 | 28.51807 | 73.00124 | 35897 ft | 478 kts | 268° |
| 2026-05-05 17:28 | 28.51450 | 72.92576 | 35906 ft | 478 kts | 268° |
| 2026-05-05 17:29 | 28.51088 | 72.85033 | 35906 ft | 478 kts | 268° |
| 2026-05-05 17:29 | 28.50724 | 72.77489 | 35906 ft | 478 kts | 268° |
| 2026-05-05 17:30 | 28.50356 | 72.69993 | 35897 ft | 478 kts | 268° |
| 2026-05-05 17:30 | 28.49981 | 72.62450 | 35897 ft | 478 kts | 268° |
| 2026-05-05 17:31 | 28.49605 | 72.54910 | 35897 ft | 478 kts | 268° |
| 2026-05-05 17:31 | 28.49225 | 72.47365 | 35897 ft | 478 kts | 268° |
| 2026-05-05 17:32 | 28.48840 | 72.39814 | 35896 ft | 478 kts | 268° |
| 2026-05-05 17:32 | 28.48813 | 72.32283 | 35896 ft | 476 kts | 278° |
| 2026-05-05 17:33 | 28.50526 | 72.25067 | 35897 ft | 473 kts | 295° |
| 2026-05-05 17:33 | 28.54150 | 72.18866 | 35897 ft | 474 kts | 313° |
| 2026-05-05 17:34 | 28.58967 | 72.13730 | 35896 ft | 475 kts | 317° |
| 2026-05-05 17:34 | 28.63956 | 72.08786 | 35897 ft | 476 kts | 318° |
| 2026-05-05 17:35 | 28.68945 | 72.03839 | 35897 ft | 476 kts | 317° |
| 2026-05-05 17:35 | 28.73917 | 71.98853 | 35897 ft | 476 kts | 317° |
| 2026-05-05 17:36 | 28.78868 | 71.93854 | 35897 ft | 475 kts | 317° |
| 2026-05-05 17:36 | 28.83808 | 71.88855 | 35897 ft | 475 kts | 317° |
| 2026-05-05 17:37 | 28.88747 | 71.83854 | 35889 ft | 474 kts | 317° |
| 2026-05-05 17:37 | 28.93675 | 71.78860 | 35887 ft | 474 kts | 317° |
| 2026-05-05 17:38 | 28.98606 | 71.73853 | 35888 ft | 474 kts | 317° |
| 2026-05-05 17:38 | 29.03533 | 71.68846 | 35888 ft | 474 kts | 317° |
| 2026-05-05 17:39 | 29.08457 | 71.63835 | 35888 ft | 474 kts | 317° |
| 2026-05-05 17:39 | 29.13378 | 71.58820 | 35887 ft | 474 kts | 317° |
| 2026-05-05 17:40 | 29.18302 | 71.53796 | 35888 ft | 474 kts | 317° |
| 2026-05-05 17:40 | 29.23217 | 71.48776 | 35888 ft | 473 kts | 317° |
| 2026-05-05 17:41 | 29.28128 | 71.43754 | 35888 ft | 473 kts | 317° |
| 2026-05-05 17:41 | 29.33040 | 71.38741 | 35888 ft | 473 kts | 317° |
| 2026-05-05 17:42 | 29.37976 | 71.33741 | 35888 ft | 473 kts | 317° |
| 2026-05-05 17:42 | 29.42908 | 71.28744 | 35888 ft | 473 kts | 317° |
| 2026-05-05 17:43 | 29.47833 | 71.23738 | 35888 ft | 473 kts | 317° |
| 2026-05-05 17:43 | 29.52753 | 71.18726 | 35888 ft | 473 kts | 317° |
| 2026-05-05 17:44 | 29.57674 | 71.13707 | 35888 ft | 473 kts | 317° |
| 2026-05-05 17:44 | 29.62590 | 71.08690 | 35888 ft | 473 kts | 317° |
| 2026-05-05 17:45 | 29.67504 | 71.03665 | 35887 ft | 473 kts | 317° |
| 2026-05-05 17:45 | 29.72505 | 70.98757 | 35887 ft | 473 kts | 320° |
| 2026-05-05 17:46 | 29.77644 | 70.94031 | 35887 ft | 473 kts | 320° |
| 2026-05-05 17:46 | 29.82774 | 70.89303 | 35888 ft | 472 kts | 320° |
| 2026-05-05 17:47 | 29.87881 | 70.84534 | 35888 ft | 472 kts | 319° |
| 2026-05-05 17:47 | 29.92976 | 70.79747 | 35887 ft | 473 kts | 319° |
| 2026-05-05 17:48 | 29.98068 | 70.74949 | 35887 ft | 472 kts | 319° |
| 2026-05-05 17:48 | 30.03154 | 70.70155 | 35887 ft | 472 kts | 319° |
| 2026-05-05 17:49 | 30.08230 | 70.65365 | 35887 ft | 471 kts | 319° |
| 2026-05-05 17:49 | 30.13299 | 70.60575 | 35887 ft | 470 kts | 319° |
| 2026-05-05 17:50 | 30.18330 | 70.55814 | 35888 ft | 471 kts | 319° |
| 2026-05-05 17:50 | 30.23426 | 70.50990 | 35888 ft | 471 kts | 320° |
| 2026-05-05 17:51 | 30.28541 | 70.46256 | 35886 ft | 471 kts | 320° |
| 2026-05-05 17:51 | 30.33640 | 70.41572 | 35883 ft | 471 kts | 320° |
| 2026-05-05 17:52 | 30.38764 | 70.36844 | 35887 ft | 471 kts | 320° |
| 2026-05-05 17:52 | 30.43882 | 70.32107 | 35888 ft | 471 kts | 320° |
| 2026-05-05 17:53 | 30.48993 | 70.27365 | 35889 ft | 471 kts | 320° |
| 2026-05-05 17:53 | 30.54105 | 70.22617 | 35890 ft | 471 kts | 320° |
| 2026-05-05 17:54 | 30.59211 | 70.17866 | 35888 ft | 471 kts | 320° |
| 2026-05-05 17:54 | 30.64316 | 70.13110 | 35888 ft | 470 kts | 320° |
| 2026-05-05 17:55 | 30.69419 | 70.08346 | 35886 ft | 471 kts | 320° |
| 2026-05-05 17:55 | 30.74523 | 70.03579 | 35885 ft | 470 kts | 320° |
| 2026-05-05 17:56 | 30.79624 | 69.98810 | 35889 ft | 470 kts | 320° |
| 2026-05-05 17:56 | 30.84710 | 69.94044 | 35887 ft | 469 kts | 320° |
| 2026-05-05 17:57 | 30.89787 | 69.89281 | 35888 ft | 469 kts | 320° |
| 2026-05-05 17:57 | 30.94860 | 69.84515 | 35898 ft | 468 kts | 320° |
| 2026-05-05 17:58 | 30.99931 | 69.79744 | 35897 ft | 468 kts | 320° |
| 2026-05-05 17:58 | 31.04989 | 69.74981 | 35899 ft | 468 kts | 320° |
| 2026-05-05 17:59 | 31.09198 | 69.71010 | 35898 ft | 468 kts | 320° |
| 2026-05-05 17:59 | 31.14251 | 69.66237 | 35897 ft | 467 kts | 320° |
| 2026-05-05 18:00 | 31.19304 | 69.61457 | 35896 ft | 467 kts | 320° |
| 2026-05-05 18:00 | 31.24345 | 69.56683 | 35896 ft | 466 kts | 319° |
| 2026-05-05 18:01 | 31.30202 | 69.51125 | 35906 ft | 467 kts | 320° |
| 2026-05-05 18:01 | 31.34388 | 69.47067 | 35905 ft | 466 kts | 316° |
| 2026-05-05 18:02 | 31.38708 | 69.41432 | 35905 ft | 465 kts | 309° |
| 2026-05-05 18:02 | 31.42759 | 69.35524 | 35905 ft | 465 kts | 308° |
| 2026-05-05 18:03 | 31.46762 | 69.29577 | 35906 ft | 465 kts | 308° |
| 2026-05-05 18:03 | 31.50766 | 69.23632 | 35908 ft | 465 kts | 308° |
| 2026-05-05 18:04 | 31.54773 | 69.17687 | 35907 ft | 465 kts | 308° |
| 2026-05-05 18:04 | 31.58783 | 69.11737 | 35907 ft | 465 kts | 308° |
| 2026-05-05 18:05 | 31.62765 | 69.05826 | 35907 ft | 465 kts | 308° |
| 2026-05-05 18:05 | 31.66766 | 68.99879 | 36102 ft | 462 kts | 308° |
| 2026-05-05 18:05 | 31.68776 | 68.96953 | 36374 ft | 460 kts | 309° |
| 2026-05-05 18:06 | 31.70825 | 68.94076 | 36588 ft | 459 kts | 309° |
| 2026-05-05 18:06 | 31.72219 | 68.92145 | 36699 ft | 458 kts | 309° |
| 2026-05-05 18:06 | 31.74948 | 68.88380 | 37021 ft | 455 kts | 309° |
| 2026-05-05 18:06 | 31.76987 | 68.85560 | 37361 ft | 450 kts | 309° |
| 2026-05-05 18:07 | 31.78998 | 68.82762 | 37593 ft | 448 kts | 309° |
| 2026-05-05 18:07 | 31.81006 | 68.79958 | 37754 ft | 447 kts | 309° |
| 2026-05-05 18:07 | 31.83005 | 68.77157 | 37887 ft | 447 kts | 309° |
| 2026-05-05 18:08 | 31.87005 | 68.71533 | 37919 ft | 451 kts | 309° |
| 2026-05-05 18:08 | 31.91043 | 68.65848 | 37916 ft | 453 kts | 309° |
| 2026-05-05 18:09 | 31.95080 | 68.60158 | 37916 ft | 453 kts | 309° |
| 2026-05-05 18:09 | 31.99110 | 68.54472 | 37915 ft | 452 kts | 309° |
| 2026-05-05 18:10 | 32.03133 | 68.48781 | 37916 ft | 452 kts | 309° |
| 2026-05-05 18:10 | 32.07161 | 68.43082 | 37916 ft | 452 kts | 309° |
| 2026-05-05 18:11 | 32.11179 | 68.37388 | 37916 ft | 452 kts | 309° |
| 2026-05-05 18:11 | 32.15194 | 68.31685 | 37915 ft | 452 kts | 309° |
| 2026-05-05 18:12 | 32.19203 | 68.25980 | 37924 ft | 452 kts | 309° |
| 2026-05-05 18:12 | 32.23221 | 68.20260 | 37914 ft | 454 kts | 309° |
| 2026-05-05 18:13 | 32.27266 | 68.14493 | 37916 ft | 457 kts | 308° |
| 2026-05-05 18:13 | 32.31320 | 68.08707 | 37916 ft | 457 kts | 309° |
| 2026-05-05 18:14 | 32.35365 | 68.02922 | 37916 ft | 457 kts | 309° |
| 2026-05-05 18:14 | 32.39406 | 67.97133 | 37916 ft | 456 kts | 308° |
| 2026-05-05 18:15 | 32.43419 | 67.91374 | 37915 ft | 456 kts | 308° |
| 2026-05-05 18:15 | 32.47451 | 67.85578 | 37915 ft | 456 kts | 308° |
| 2026-05-05 18:16 | 32.51492 | 67.79785 | 37915 ft | 456 kts | 309° |
| 2026-05-05 18:16 | 32.55683 | 67.74146 | 37915 ft | 456 kts | 311° |
| 2026-05-05 18:17 | 32.59933 | 67.68553 | 37916 ft | 456 kts | 311° |
| 2026-05-05 18:17 | 32.64162 | 67.62937 | 37914 ft | 457 kts | 310° |
| 2026-05-05 18:18 | 32.68375 | 67.57293 | 37916 ft | 456 kts | 310° |
| 2026-05-05 18:18 | 32.72573 | 67.51649 | 37914 ft | 455 kts | 310° |
| 2026-05-05 18:19 | 32.76763 | 67.46003 | 37918 ft | 456 kts | 310° |
| 2026-05-05 18:19 | 32.80907 | 67.40305 | 37913 ft | 455 kts | 309° |
| 2026-05-05 18:20 | 32.84944 | 67.34480 | 37915 ft | 457 kts | 308° |
| 2026-05-05 18:20 | 32.88973 | 67.28650 | 37916 ft | 456 kts | 308° |
| 2026-05-05 18:21 | 32.93010 | 67.22846 | 37937 ft | 456 kts | 309° |
| 2026-05-05 18:21 | 32.97034 | 67.17069 | 37930 ft | 455 kts | 309° |
| 2026-05-05 18:22 | 33.01077 | 67.11266 | 37933 ft | 455 kts | 309° |
| 2026-05-05 18:22 | 33.05117 | 67.05455 | 37935 ft | 455 kts | 309° |
| 2026-05-05 18:23 | 33.09153 | 66.99635 | 37941 ft | 455 kts | 309° |
| 2026-05-05 18:23 | 33.13187 | 66.93811 | 37939 ft | 455 kts | 309° |
| 2026-05-05 18:24 | 33.17214 | 66.87996 | 37940 ft | 455 kts | 309° |
| 2026-05-05 18:24 | 33.21238 | 66.82166 | 37941 ft | 455 kts | 309° |
| 2026-05-05 18:25 | 33.25265 | 66.76326 | 37942 ft | 455 kts | 308° |
| 2026-05-05 18:25 | 33.29280 | 66.70489 | 37940 ft | 454 kts | 308° |
| 2026-05-05 18:26 | 33.33294 | 66.64650 | 37942 ft | 455 kts | 308° |
| 2026-05-05 18:26 | 33.37308 | 66.58797 | 37949 ft | 455 kts | 308° |
| 2026-05-05 18:27 | 33.41324 | 66.52931 | 37943 ft | 455 kts | 308° |
| 2026-05-05 18:27 | 33.45333 | 66.47075 | 37938 ft | 456 kts | 308° |
| 2026-05-05 18:28 | 33.51344 | 66.38244 | 37941 ft | 455 kts | 308° |
| 2026-05-05 18:28 | 33.55330 | 66.32355 | 37947 ft | 455 kts | 308° |
| 2026-05-05 18:29 | 33.59317 | 66.26460 | 37940 ft | 455 kts | 308° |
| 2026-05-05 18:29 | 33.63307 | 66.20564 | 37945 ft | 455 kts | 308° |
| 2026-05-05 18:30 | 33.67288 | 66.14669 | 37951 ft | 453 kts | 308° |
| 2026-05-05 18:30 | 33.71250 | 66.08780 | 37953 ft | 454 kts | 308° |
| 2026-05-05 18:31 | 33.75221 | 66.02875 | 37942 ft | 454 kts | 308° |
| 2026-05-05 18:31 | 33.79195 | 65.96959 | 37947 ft | 455 kts | 308° |
| 2026-05-05 18:32 | 33.83170 | 65.91029 | 37953 ft | 455 kts | 308° |
| 2026-05-05 18:32 | 33.87136 | 65.85098 | 37950 ft | 455 kts | 308° |
| 2026-05-05 18:33 | 33.91101 | 65.79162 | 37956 ft | 455 kts | 308° |
| 2026-05-05 18:33 | 33.95067 | 65.73223 | 37940 ft | 455 kts | 308° |
| 2026-05-05 18:34 | 33.99028 | 65.67271 | 37923 ft | 455 kts | 308° |
| 2026-05-05 18:34 | 34.02984 | 65.61317 | 37930 ft | 455 kts | 308° |
| 2026-05-05 18:35 | 34.06940 | 65.55353 | 37925 ft | 455 kts | 308° |
| 2026-05-05 18:35 | 34.10874 | 65.49434 | 37925 ft | 456 kts | 308° |
| 2026-05-05 18:36 | 34.14837 | 65.43466 | 37926 ft | 455 kts | 308° |
| 2026-05-05 18:36 | 34.18795 | 65.37493 | 37920 ft | 455 kts | 308° |
| 2026-05-05 18:37 | 34.22777 | 65.31472 | 37927 ft | 455 kts | 308° |
| 2026-05-05 18:37 | 34.26702 | 65.25526 | 37924 ft | 456 kts | 308° |
| 2026-05-05 18:38 | 34.30650 | 65.19527 | 37926 ft | 456 kts | 308° |
| 2026-05-05 18:38 | 34.34598 | 65.13518 | 37926 ft | 456 kts | 308° |
| 2026-05-05 18:39 | 34.38547 | 65.07503 | 37924 ft | 457 kts | 308° |
| 2026-05-05 18:39 | 34.42495 | 65.01487 | 37921 ft | 456 kts | 308° |
| 2026-05-05 18:40 | 34.46439 | 64.95465 | 37924 ft | 456 kts | 307° |
| 2026-05-05 18:40 | 34.50384 | 64.89434 | 37923 ft | 457 kts | 308° |
| 2026-05-05 18:41 | 34.54325 | 64.83389 | 37925 ft | 457 kts | 307° |
| 2026-05-05 18:41 | 34.58252 | 64.77332 | 37925 ft | 457 kts | 307° |
| 2026-05-05 18:42 | 34.62180 | 64.71267 | 37927 ft | 457 kts | 307° |
| 2026-05-05 18:42 | 34.66104 | 64.65204 | 37925 ft | 457 kts | 307° |
| 2026-05-05 18:43 | 34.70027 | 64.59137 | 37921 ft | 457 kts | 307° |
| 2026-05-05 18:43 | 34.73951 | 64.53055 | 37925 ft | 456 kts | 307° |
| 2026-05-05 18:44 | 34.77863 | 64.46983 | 37925 ft | 457 kts | 307° |
| 2026-05-05 18:44 | 34.81774 | 64.40901 | 37924 ft | 457 kts | 307° |
| 2026-05-05 18:45 | 34.85688 | 64.34799 | 37923 ft | 457 kts | 307° |
| 2026-05-05 18:45 | 34.89601 | 64.28691 | 37926 ft | 458 kts | 307° |
| 2026-05-05 18:46 | 34.93515 | 64.22581 | 37922 ft | 457 kts | 307° |
| 2026-05-05 18:46 | 34.96758 | 64.17501 | 37922 ft | 457 kts | 307° |
| 2026-05-05 18:47 | 35.00664 | 64.11375 | 37927 ft | 458 kts | 307° |
| 2026-05-05 18:47 | 35.04563 | 64.05245 | 37927 ft | 457 kts | 307° |
| 2026-05-05 18:48 | 35.08461 | 63.99112 | 37923 ft | 457 kts | 307° |
| 2026-05-05 18:48 | 35.12361 | 63.92959 | 37917 ft | 458 kts | 307° |
| 2026-05-05 18:49 | 35.16256 | 63.86799 | 37915 ft | 458 kts | 307° |
| 2026-05-05 18:49 | 35.20154 | 63.80641 | 37913 ft | 458 kts | 307° |
| 2026-05-05 18:50 | 35.24046 | 63.74472 | 37915 ft | 458 kts | 307° |
| 2026-05-05 18:50 | 35.27939 | 63.68292 | 37915 ft | 458 kts | 307° |
| 2026-05-05 18:51 | 35.31829 | 63.62116 | 37915 ft | 459 kts | 307° |
| 2026-05-05 18:51 | 35.35731 | 63.55940 | 37903 ft | 459 kts | 307° |
| 2026-05-05 18:52 | 35.39633 | 63.49753 | 37899 ft | 459 kts | 307° |
| 2026-05-05 18:52 | 35.43532 | 63.43560 | 37894 ft | 458 kts | 307° |
| 2026-05-05 18:53 | 35.47421 | 63.37368 | 37897 ft | 459 kts | 307° |
| 2026-05-05 18:53 | 35.51312 | 63.31160 | 37899 ft | 459 kts | 307° |
| 2026-05-05 18:54 | 35.55200 | 63.24951 | 37895 ft | 459 kts | 307° |
| 2026-05-05 18:54 | 35.59089 | 63.18732 | 37900 ft | 459 kts | 307° |
| 2026-05-05 18:55 | 35.62921 | 63.12518 | 37899 ft | 459 kts | 306° |
| 2026-05-05 18:55 | 35.66761 | 63.06239 | 37897 ft | 459 kts | 306° |
| 2026-05-05 18:56 | 35.70599 | 62.99950 | 37894 ft | 459 kts | 306° |
| 2026-05-05 18:56 | 35.74429 | 62.93668 | 37901 ft | 459 kts | 306° |
| 2026-05-05 18:57 | 35.78267 | 62.87373 | 37900 ft | 460 kts | 306° |
| 2026-05-05 18:57 | 35.82105 | 62.81070 | 37909 ft | 460 kts | 306° |
| 2026-05-05 18:58 | 35.85944 | 62.74764 | 37925 ft | 460 kts | 306° |
| 2026-05-05 18:58 | 35.89779 | 62.68445 | 37925 ft | 461 kts | 306° |
| 2026-05-05 18:59 | 35.93611 | 62.62111 | 37924 ft | 460 kts | 306° |
| 2026-05-05 18:59 | 35.97436 | 62.55775 | 37924 ft | 460 kts | 306° |
| 2026-05-05 19:00 | 36.01262 | 62.49433 | 37925 ft | 461 kts | 306° |
| 2026-05-05 19:00 | 36.05087 | 62.43080 | 37923 ft | 461 kts | 306° |
| 2026-05-05 19:01 | 36.08912 | 62.36709 | 37915 ft | 461 kts | 306° |
| 2026-05-05 19:01 | 36.12734 | 62.30345 | 37915 ft | 461 kts | 306° |
| 2026-05-05 19:02 | 36.16548 | 62.23974 | 37916 ft | 461 kts | 306° |
| 2026-05-05 19:02 | 36.20365 | 62.17587 | 37917 ft | 461 kts | 306° |
| 2026-05-05 19:03 | 36.24175 | 62.11207 | 37917 ft | 461 kts | 305° |
| 2026-05-05 19:03 | 36.27979 | 62.04810 | 37916 ft | 461 kts | 305° |
| 2026-05-05 19:04 | 36.31777 | 61.98407 | 37922 ft | 461 kts | 305° |
| 2026-05-05 19:04 | 36.35580 | 61.91994 | 37926 ft | 461 kts | 305° |
| 2026-05-05 19:05 | 36.39385 | 61.85577 | 37917 ft | 462 kts | 305° |
| 2026-05-05 19:05 | 36.43184 | 61.79149 | 37905 ft | 461 kts | 305° |
| 2026-05-05 19:06 | 36.46976 | 61.72718 | 37906 ft | 461 kts | 305° |
| 2026-05-05 19:06 | 36.50765 | 61.66296 | 37906 ft | 460 kts | 305° |
| 2026-05-05 19:07 | 36.54520 | 61.59902 | 37906 ft | 461 kts | 305° |
| 2026-05-05 19:07 | 36.58321 | 61.53419 | 37907 ft | 461 kts | 305° |
| 2026-05-05 19:08 | 36.62070 | 61.47010 | 37912 ft | 461 kts | 305° |
| 2026-05-05 19:08 | 36.65845 | 61.40489 | 37907 ft | 461 kts | 304° |
| 2026-05-05 19:09 | 36.69534 | 61.33967 | 37916 ft | 461 kts | 304° |
| 2026-05-05 19:09 | 36.73204 | 61.27473 | 37915 ft | 461 kts | 304° |
| 2026-05-05 19:10 | 36.76925 | 61.20901 | 37915 ft | 461 kts | 304° |
| 2026-05-05 19:10 | 36.80601 | 61.14411 | 37925 ft | 461 kts | 304° |
| 2026-05-05 19:11 | 36.84321 | 61.07828 | 37926 ft | 461 kts | 304° |
| 2026-05-05 19:11 | 36.87981 | 61.01335 | 37925 ft | 461 kts | 304° |
| 2026-05-05 19:12 | 36.91668 | 60.94782 | 37926 ft | 461 kts | 304° |
| 2026-05-05 19:12 | 36.95351 | 60.88225 | 37931 ft | 461 kts | 304° |
| 2026-05-05 19:13 | 36.99045 | 60.81686 | 37932 ft | 461 kts | 305° |
| 2026-05-05 19:13 | 37.02992 | 60.75355 | 37932 ft | 462 kts | 307° |
| 2026-05-05 19:14 | 37.07010 | 60.69085 | 37933 ft | 461 kts | 307° |
| 2026-05-05 19:14 | 37.10993 | 60.62781 | 37934 ft | 461 kts | 307° |
| 2026-05-05 19:15 | 37.14949 | 60.56441 | 37935 ft | 462 kts | 307° |
| 2026-05-05 19:15 | 37.18895 | 60.50084 | 37930 ft | 462 kts | 307° |
| 2026-05-05 19:16 | 37.22836 | 60.43724 | 37931 ft | 462 kts | 306° |
| 2026-05-05 19:16 | 37.26781 | 60.37350 | 37931 ft | 462 kts | 306° |
| 2026-05-05 19:17 | 37.30723 | 60.30967 | 37932 ft | 462 kts | 306° |
| 2026-05-05 19:17 | 37.34664 | 60.24580 | 37935 ft | 462 kts | 306° |
| 2026-05-05 19:18 | 37.38601 | 60.18182 | 37934 ft | 463 kts | 306° |
| 2026-05-05 19:18 | 37.42530 | 60.11781 | 37940 ft | 462 kts | 306° |
| 2026-05-05 19:19 | 37.46460 | 60.05370 | 37931 ft | 462 kts | 306° |
| 2026-05-05 19:19 | 37.50384 | 59.98955 | 37922 ft | 462 kts | 306° |
| 2026-05-05 19:20 | 37.54283 | 59.92569 | 37926 ft | 463 kts | 306° |
| 2026-05-05 19:20 | 37.58233 | 59.86089 | 37922 ft | 463 kts | 306° |
| 2026-05-05 19:21 | 37.62153 | 59.79644 | 37919 ft | 463 kts | 306° |
| 2026-05-05 19:21 | 37.66046 | 59.73229 | 37916 ft | 464 kts | 306° |
| 2026-05-05 19:22 | 37.69963 | 59.66766 | 37914 ft | 463 kts | 306° |
| 2026-05-05 19:22 | 37.73875 | 59.60300 | 37906 ft | 463 kts | 306° |
| 2026-05-05 19:23 | 37.77781 | 59.53825 | 37922 ft | 463 kts | 306° |
| 2026-05-05 19:23 | 37.81685 | 59.47342 | 37923 ft | 463 kts | 306° |
| 2026-05-05 19:24 | 37.85583 | 59.40858 | 37915 ft | 463 kts | 306° |
| 2026-05-05 19:24 | 37.89387 | 59.34282 | 37910 ft | 462 kts | 301° |
| 2026-05-05 19:25 | 37.92811 | 59.27394 | 37906 ft | 462 kts | 300° |
| 2026-05-05 19:25 | 37.96166 | 59.20446 | 37896 ft | 462 kts | 300° |
| 2026-05-05 19:26 | 37.99505 | 59.13487 | 37894 ft | 462 kts | 300° |
| 2026-05-05 19:26 | 38.02846 | 59.06529 | 37865 ft | 462 kts | 300° |
| 2026-05-05 19:27 | 38.06186 | 58.99568 | 37866 ft | 462 kts | 300° |
| 2026-05-05 19:27 | 38.09525 | 58.92599 | 37865 ft | 462 kts | 300° |
| 2026-05-05 19:28 | 38.12862 | 58.85619 | 37870 ft | 462 kts | 300° |
| 2026-05-05 19:28 | 38.16192 | 58.78637 | 37863 ft | 462 kts | 300° |
| 2026-05-05 19:29 | 38.19520 | 58.71644 | 37860 ft | 462 kts | 299° |
| 2026-05-05 19:29 | 38.22843 | 58.64642 | 37857 ft | 462 kts | 299° |
| 2026-05-05 19:30 | 38.26160 | 58.57643 | 37862 ft | 462 kts | 299° |
| 2026-05-05 19:30 | 38.29471 | 58.50638 | 37857 ft | 462 kts | 299° |
| 2026-05-05 19:31 | 38.32778 | 58.43628 | 37859 ft | 462 kts | 299° |
| 2026-05-05 19:31 | 38.35528 | 58.37786 | 37858 ft | 462 kts | 299° |
| 2026-05-05 19:32 | 38.38827 | 58.30764 | 37869 ft | 462 kts | 299° |
| 2026-05-05 19:32 | 38.41705 | 58.23465 | 37876 ft | 461 kts | 293° |
| 2026-05-05 19:33 | 38.44368 | 58.16024 | 37880 ft | 461 kts | 292° |
| 2026-05-05 19:33 | 38.46991 | 58.08567 | 37885 ft | 461 kts | 292° |